<?xml version="1.0" encoding="UTF-8" standalone="no" ?>
<gpx xmlns="http://www.topografix.com/GPX/1/1" xmlns:xsi="http://www.w3.org/2001/XMLSchema-instance" xsi:schemaLocation="http://www.topografix.com/GPX/1/1 http://www.topografix.com/GPX/1/1/gpx.xsd" version="1.1" creator="VisuGPX - https://www.visugpx.com">
  <metadata>
    <name>Bois de Paris, Cros de l'embrasas depuis Saint Bauzille de Montmel</name>
    <desc><![CDATA[Bois de Paris, Cros de l'embrasas depuis Saint Bauzille de Montmel avec l'ANR 34 le 28 novembre 2019




[img]http://capfrandos.free.fr/100_7106.jpg[/img]


]]></desc>
  </metadata>
  <wpt lat="43.79121" lon="3.96127">
    <ele>82</ele>
    <name><![CDATA[0000256]]></name>
    <type><![CDATA[Point de départ]]></type>
  </wpt>
  <wpt lat="43.81773" lon="4.00857">
    <ele>212</ele>
    <name><![CDATA[0000257]]></name>
    <type><![CDATA[Point d'arrivée]]></type>
  </wpt>
  <wpt lat="43.81626" lon="4.01142">
    <ele>227</ele>
    <name><![CDATA[0000258]]></name>
    <type><![CDATA[Point d'arrivée]]></type>
  </wpt>
  <wpt lat="43.79111" lon="3.96116">
    <ele>82</ele>
    <name><![CDATA[0000259]]></name>
    <type><![CDATA[Point d'arrivée]]></type>
  </wpt>
  <trk>
    <name><![CDATA[2019-11-28 08:29]]></name>
    <trkseg>
      <trkpt lat="43.79121" lon="3.96127">
        <ele>82</ele>
        <time>2019-11-28T07:29:22.462Z</time>
      </trkpt>
      <trkpt lat="43.79138" lon="3.96116">
        <ele>82</ele>
        <time>2019-11-28T07:47:08.000Z</time>
      </trkpt>
      <trkpt lat="43.79156" lon="3.96109">
        <ele>82</ele>
        <time>2019-11-28T07:47:21.000Z</time>
      </trkpt>
      <trkpt lat="43.79173" lon="3.96099">
        <ele>82</ele>
        <time>2019-11-28T07:47:36.000Z</time>
      </trkpt>
      <trkpt lat="43.79191" lon="3.96089">
        <ele>83</ele>
        <time>2019-11-28T07:47:52.000Z</time>
      </trkpt>
      <trkpt lat="43.79207" lon="3.96074">
        <ele>83</ele>
        <time>2019-11-28T07:48:07.000Z</time>
      </trkpt>
      <trkpt lat="43.79223" lon="3.96061">
        <ele>83</ele>
        <time>2019-11-28T07:48:27.000Z</time>
      </trkpt>
      <trkpt lat="43.79238" lon="3.96046">
        <ele>83</ele>
        <time>2019-11-28T07:48:50.000Z</time>
      </trkpt>
      <trkpt lat="43.79254" lon="3.96034">
        <ele>85</ele>
        <time>2019-11-28T07:49:07.000Z</time>
      </trkpt>
      <trkpt lat="43.7927" lon="3.96022">
        <ele>85</ele>
        <time>2019-11-28T07:49:26.000Z</time>
      </trkpt>
      <trkpt lat="43.79285" lon="3.96009">
        <ele>85</ele>
        <time>2019-11-28T07:49:47.000Z</time>
      </trkpt>
      <trkpt lat="43.79299" lon="3.95992">
        <ele>86</ele>
        <time>2019-11-28T07:51:53.000Z</time>
      </trkpt>
      <trkpt lat="43.79314" lon="3.95978">
        <ele>86</ele>
        <time>2019-11-28T07:52:14.000Z</time>
      </trkpt>
      <trkpt lat="43.7933" lon="3.95965">
        <ele>86</ele>
        <time>2019-11-28T07:52:28.000Z</time>
      </trkpt>
      <trkpt lat="43.79347" lon="3.95953">
        <ele>88</ele>
        <time>2019-11-28T07:52:42.000Z</time>
      </trkpt>
      <trkpt lat="43.79363" lon="3.9594">
        <ele>88</ele>
        <time>2019-11-28T07:52:56.000Z</time>
      </trkpt>
      <trkpt lat="43.7938" lon="3.95929">
        <ele>89</ele>
        <time>2019-11-28T07:53:11.000Z</time>
      </trkpt>
      <trkpt lat="43.79397" lon="3.95916">
        <ele>89</ele>
        <time>2019-11-28T07:53:25.000Z</time>
      </trkpt>
      <trkpt lat="43.79412" lon="3.95902">
        <ele>90</ele>
        <time>2019-11-28T07:53:40.000Z</time>
      </trkpt>
      <trkpt lat="43.7943" lon="3.95896">
        <ele>93</ele>
        <time>2019-11-28T07:54:05.000Z</time>
      </trkpt>
      <trkpt lat="43.79449" lon="3.959">
        <ele>94</ele>
        <time>2019-11-28T07:54:29.000Z</time>
      </trkpt>
      <trkpt lat="43.79466" lon="3.95911">
        <ele>95</ele>
        <time>2019-11-28T07:54:44.000Z</time>
      </trkpt>
      <trkpt lat="43.79482" lon="3.95922">
        <ele>96</ele>
        <time>2019-11-28T07:55:03.000Z</time>
      </trkpt>
      <trkpt lat="43.79497" lon="3.95938">
        <ele>96</ele>
        <time>2019-11-28T07:55:21.000Z</time>
      </trkpt>
      <trkpt lat="43.79515" lon="3.95943">
        <ele>100</ele>
        <time>2019-11-28T07:55:37.000Z</time>
      </trkpt>
      <trkpt lat="43.79532" lon="3.95931">
        <ele>101</ele>
        <time>2019-11-28T07:55:54.000Z</time>
      </trkpt>
      <trkpt lat="43.79549" lon="3.95923">
        <ele>103</ele>
        <time>2019-11-28T07:56:12.000Z</time>
      </trkpt>
      <trkpt lat="43.79568" lon="3.95924">
        <ele>106</ele>
        <time>2019-11-28T07:56:29.000Z</time>
      </trkpt>
      <trkpt lat="43.79585" lon="3.95933">
        <ele>110</ele>
        <time>2019-11-28T07:56:48.000Z</time>
      </trkpt>
      <trkpt lat="43.79602" lon="3.95943">
        <ele>110</ele>
        <time>2019-11-28T07:57:04.999Z</time>
      </trkpt>
      <trkpt lat="43.79616" lon="3.9596">
        <ele>109</ele>
        <time>2019-11-28T07:57:21.999Z</time>
      </trkpt>
      <trkpt lat="43.79634" lon="3.95968">
        <ele>110</ele>
        <time>2019-11-28T07:57:39.999Z</time>
      </trkpt>
      <trkpt lat="43.79652" lon="3.95975">
        <ele>110</ele>
        <time>2019-11-28T07:57:56.999Z</time>
      </trkpt>
      <trkpt lat="43.7967" lon="3.95975">
        <ele>115</ele>
        <time>2019-11-28T07:58:17.999Z</time>
      </trkpt>
      <trkpt lat="43.7969" lon="3.95975">
        <ele>115</ele>
        <time>2019-11-28T07:58:38.999Z</time>
      </trkpt>
      <trkpt lat="43.79708" lon="3.95973">
        <ele>116</ele>
        <time>2019-11-28T07:59:00.999Z</time>
      </trkpt>
      <trkpt lat="43.79725" lon="3.95964">
        <ele>118</ele>
        <time>2019-11-28T07:59:15.999Z</time>
      </trkpt>
      <trkpt lat="43.79741" lon="3.9595">
        <ele>119</ele>
        <time>2019-11-28T07:59:36.999Z</time>
      </trkpt>
      <trkpt lat="43.79758" lon="3.95944">
        <ele>124</ele>
        <time>2019-11-28T07:59:52.999Z</time>
      </trkpt>
      <trkpt lat="43.79777" lon="3.95943">
        <ele>124</ele>
        <time>2019-11-28T08:00:09.999Z</time>
      </trkpt>
      <trkpt lat="43.79795" lon="3.95942">
        <ele>124</ele>
        <time>2019-11-28T08:00:26.999Z</time>
      </trkpt>
      <trkpt lat="43.79813" lon="3.9594">
        <ele>125</ele>
        <time>2019-11-28T08:00:42.999Z</time>
      </trkpt>
      <trkpt lat="43.79831" lon="3.95935">
        <ele>127</ele>
        <time>2019-11-28T08:00:59.999Z</time>
      </trkpt>
      <trkpt lat="43.79849" lon="3.95932">
        <ele>130</ele>
        <time>2019-11-28T08:01:15.999Z</time>
      </trkpt>
      <trkpt lat="43.79864" lon="3.95918">
        <ele>131</ele>
        <time>2019-11-28T08:01:29.999Z</time>
      </trkpt>
      <trkpt lat="43.79881" lon="3.95905">
        <ele>135</ele>
        <time>2019-11-28T08:01:47.999Z</time>
      </trkpt>
      <trkpt lat="43.79897" lon="3.95895">
        <ele>135</ele>
        <time>2019-11-28T08:02:05.999Z</time>
      </trkpt>
      <trkpt lat="43.79915" lon="3.95885">
        <ele>136</ele>
        <time>2019-11-28T08:02:22.999Z</time>
      </trkpt>
      <trkpt lat="43.79933" lon="3.95876">
        <ele>136</ele>
        <time>2019-11-28T08:02:40.999Z</time>
      </trkpt>
      <trkpt lat="43.79949" lon="3.95863">
        <ele>136</ele>
        <time>2019-11-28T08:02:53.999Z</time>
      </trkpt>
      <trkpt lat="43.79963" lon="3.95846">
        <ele>136</ele>
        <time>2019-11-28T08:03:07.999Z</time>
      </trkpt>
      <trkpt lat="43.79978" lon="3.95832">
        <ele>137</ele>
        <time>2019-11-28T08:03:21.999Z</time>
      </trkpt>
      <trkpt lat="43.79996" lon="3.95822">
        <ele>137</ele>
        <time>2019-11-28T08:03:40.999Z</time>
      </trkpt>
      <trkpt lat="43.80014" lon="3.9582">
        <ele>140</ele>
        <time>2019-11-28T08:03:57.999Z</time>
      </trkpt>
      <trkpt lat="43.80032" lon="3.95818">
        <ele>141</ele>
        <time>2019-11-28T08:04:18.999Z</time>
      </trkpt>
      <trkpt lat="43.80051" lon="3.95815">
        <ele>142</ele>
        <time>2019-11-28T08:04:36.999Z</time>
      </trkpt>
      <trkpt lat="43.80069" lon="3.9581">
        <ele>142</ele>
        <time>2019-11-28T08:04:54.999Z</time>
      </trkpt>
      <trkpt lat="43.80086" lon="3.95801">
        <ele>146</ele>
        <time>2019-11-28T08:05:15.999Z</time>
      </trkpt>
      <trkpt lat="43.80105" lon="3.95799">
        <ele>146</ele>
        <time>2019-11-28T08:05:33.999Z</time>
      </trkpt>
      <trkpt lat="43.80124" lon="3.958">
        <ele>147</ele>
        <time>2019-11-28T08:05:49.999Z</time>
      </trkpt>
      <trkpt lat="43.80142" lon="3.95795">
        <ele>148</ele>
        <time>2019-11-28T08:06:06.999Z</time>
      </trkpt>
      <trkpt lat="43.80159" lon="3.95788">
        <ele>148</ele>
        <time>2019-11-28T08:06:22.999Z</time>
      </trkpt>
      <trkpt lat="43.80177" lon="3.95782">
        <ele>152</ele>
        <time>2019-11-28T08:06:42.999Z</time>
      </trkpt>
      <trkpt lat="43.80195" lon="3.95785">
        <ele>153</ele>
        <time>2019-11-28T08:07:01.999Z</time>
      </trkpt>
      <trkpt lat="43.80214" lon="3.95786">
        <ele>154</ele>
        <time>2019-11-28T08:07:17.999Z</time>
      </trkpt>
      <trkpt lat="43.80231" lon="3.95778">
        <ele>154</ele>
        <time>2019-11-28T08:07:31.999Z</time>
      </trkpt>
      <trkpt lat="43.80248" lon="3.95766">
        <ele>153</ele>
        <time>2019-11-28T08:07:49.999Z</time>
      </trkpt>
      <trkpt lat="43.80265" lon="3.95779">
        <ele>156</ele>
        <time>2019-11-28T08:08:04.999Z</time>
      </trkpt>
      <trkpt lat="43.8028" lon="3.95793">
        <ele>157</ele>
        <time>2019-11-28T08:08:21.999Z</time>
      </trkpt>
      <trkpt lat="43.80297" lon="3.95803">
        <ele>158</ele>
        <time>2019-11-28T08:08:36.999Z</time>
      </trkpt>
      <trkpt lat="43.80312" lon="3.95817">
        <ele>159</ele>
        <time>2019-11-28T08:08:52.999Z</time>
      </trkpt>
      <trkpt lat="43.80328" lon="3.95829">
        <ele>162</ele>
        <time>2019-11-28T08:09:07.999Z</time>
      </trkpt>
      <trkpt lat="43.80346" lon="3.95836">
        <ele>164</ele>
        <time>2019-11-28T08:09:22.999Z</time>
      </trkpt>
      <trkpt lat="43.80365" lon="3.95842">
        <ele>164</ele>
        <time>2019-11-28T08:09:36.999Z</time>
      </trkpt>
      <trkpt lat="43.80384" lon="3.95844">
        <ele>164</ele>
        <time>2019-11-28T08:09:52.999Z</time>
      </trkpt>
      <trkpt lat="43.80402" lon="3.95851">
        <ele>164</ele>
        <time>2019-11-28T08:10:07.999Z</time>
      </trkpt>
      <trkpt lat="43.80419" lon="3.95858">
        <ele>163</ele>
        <time>2019-11-28T08:10:23.999Z</time>
      </trkpt>
      <trkpt lat="43.80435" lon="3.95869">
        <ele>163</ele>
        <time>2019-11-28T08:10:38.999Z</time>
      </trkpt>
      <trkpt lat="43.80453" lon="3.9588">
        <ele>162</ele>
        <time>2019-11-28T08:10:52.999Z</time>
      </trkpt>
      <trkpt lat="43.8047" lon="3.95888">
        <ele>162</ele>
        <time>2019-11-28T08:11:07.999Z</time>
      </trkpt>
      <trkpt lat="43.80486" lon="3.95902">
        <ele>162</ele>
        <time>2019-11-28T08:11:22.999Z</time>
      </trkpt>
      <trkpt lat="43.80502" lon="3.95917">
        <ele>162</ele>
        <time>2019-11-28T08:11:37.999Z</time>
      </trkpt>
      <trkpt lat="43.80519" lon="3.95928">
        <ele>162</ele>
        <time>2019-11-28T08:11:53.999Z</time>
      </trkpt>
      <trkpt lat="43.80534" lon="3.95943">
        <ele>161</ele>
        <time>2019-11-28T08:12:09.999Z</time>
      </trkpt>
      <trkpt lat="43.8055" lon="3.95955">
        <ele>161</ele>
        <time>2019-11-28T08:12:25.999Z</time>
      </trkpt>
      <trkpt lat="43.80568" lon="3.95965">
        <ele>161</ele>
        <time>2019-11-28T08:12:38.999Z</time>
      </trkpt>
      <trkpt lat="43.80551" lon="3.95955">
        <ele>161</ele>
        <time>2019-11-28T08:13:22.999Z</time>
      </trkpt>
      <trkpt lat="43.80535" lon="3.95942">
        <ele>161</ele>
        <time>2019-11-28T08:13:37.999Z</time>
      </trkpt>
      <trkpt lat="43.8052" lon="3.95929">
        <ele>162</ele>
        <time>2019-11-28T08:13:53.999Z</time>
      </trkpt>
      <trkpt lat="43.80525" lon="3.95954">
        <ele>162</ele>
        <time>2019-11-28T08:14:15.999Z</time>
      </trkpt>
      <trkpt lat="43.80532" lon="3.95977">
        <ele>162</ele>
        <time>2019-11-28T08:14:34.999Z</time>
      </trkpt>
      <trkpt lat="43.80541" lon="3.96">
        <ele>162</ele>
        <time>2019-11-28T08:14:50.999Z</time>
      </trkpt>
      <trkpt lat="43.8055" lon="3.96023">
        <ele>162</ele>
        <time>2019-11-28T08:15:05.999Z</time>
      </trkpt>
      <trkpt lat="43.80557" lon="3.96046">
        <ele>161</ele>
        <time>2019-11-28T08:15:21.999Z</time>
      </trkpt>
      <trkpt lat="43.80568" lon="3.96067">
        <ele>160</ele>
        <time>2019-11-28T08:15:40.999Z</time>
      </trkpt>
      <trkpt lat="43.80579" lon="3.96088">
        <ele>159</ele>
        <time>2019-11-28T08:15:55.999Z</time>
      </trkpt>
      <trkpt lat="43.80587" lon="3.96111">
        <ele>158</ele>
        <time>2019-11-28T08:16:14.999Z</time>
      </trkpt>
      <trkpt lat="43.80595" lon="3.96134">
        <ele>157</ele>
        <time>2019-11-28T08:16:31.999Z</time>
      </trkpt>
      <trkpt lat="43.80608" lon="3.96153">
        <ele>157</ele>
        <time>2019-11-28T08:16:46.999Z</time>
      </trkpt>
      <trkpt lat="43.80618" lon="3.96175">
        <ele>155</ele>
        <time>2019-11-28T08:17:05.999Z</time>
      </trkpt>
      <trkpt lat="43.80618" lon="3.96201">
        <ele>155</ele>
        <time>2019-11-28T08:17:34.999Z</time>
      </trkpt>
      <trkpt lat="43.80603" lon="3.96217">
        <ele>154</ele>
        <time>2019-11-28T08:17:53.999Z</time>
      </trkpt>
      <trkpt lat="43.80587" lon="3.96227">
        <ele>154</ele>
        <time>2019-11-28T08:18:11.999Z</time>
      </trkpt>
      <trkpt lat="43.80569" lon="3.96234">
        <ele>153</ele>
        <time>2019-11-28T08:18:29.999Z</time>
      </trkpt>
      <trkpt lat="43.80551" lon="3.96239">
        <ele>153</ele>
        <time>2019-11-28T08:18:48.999Z</time>
      </trkpt>
      <trkpt lat="43.80533" lon="3.96244">
        <ele>153</ele>
        <time>2019-11-28T08:19:08.999Z</time>
      </trkpt>
      <trkpt lat="43.80515" lon="3.96251">
        <ele>151</ele>
        <time>2019-11-28T08:19:26.999Z</time>
      </trkpt>
      <trkpt lat="43.80498" lon="3.96259">
        <ele>150</ele>
        <time>2019-11-28T08:19:48.999Z</time>
      </trkpt>
      <trkpt lat="43.80483" lon="3.96275">
        <ele>150</ele>
        <time>2019-11-28T08:20:08.999Z</time>
      </trkpt>
      <trkpt lat="43.80464" lon="3.96279">
        <ele>149</ele>
        <time>2019-11-28T08:20:28.999Z</time>
      </trkpt>
      <trkpt lat="43.80446" lon="3.96282">
        <ele>149</ele>
        <time>2019-11-28T08:20:59.999Z</time>
      </trkpt>
      <trkpt lat="43.8043" lon="3.96293">
        <ele>148</ele>
        <time>2019-11-28T08:21:20.999Z</time>
      </trkpt>
      <trkpt lat="43.80414" lon="3.96305">
        <ele>146</ele>
        <time>2019-11-28T08:21:43.999Z</time>
      </trkpt>
      <trkpt lat="43.80396" lon="3.9631">
        <ele>146</ele>
        <time>2019-11-28T08:22:05.999Z</time>
      </trkpt>
      <trkpt lat="43.80379" lon="3.96319">
        <ele>146</ele>
        <time>2019-11-28T08:22:22.999Z</time>
      </trkpt>
      <trkpt lat="43.80365" lon="3.96335">
        <ele>143</ele>
        <time>2019-11-28T08:22:50.999Z</time>
      </trkpt>
      <trkpt lat="43.80355" lon="3.96357">
        <ele>143</ele>
        <time>2019-11-28T08:23:18.999Z</time>
      </trkpt>
      <trkpt lat="43.80347" lon="3.9638">
        <ele>142</ele>
        <time>2019-11-28T08:23:36.999Z</time>
      </trkpt>
      <trkpt lat="43.80333" lon="3.96397">
        <ele>138</ele>
        <time>2019-11-28T08:23:59.999Z</time>
      </trkpt>
      <trkpt lat="43.8032" lon="3.96414">
        <ele>138</ele>
        <time>2019-11-28T08:24:30.999Z</time>
      </trkpt>
      <trkpt lat="43.8031" lon="3.96437">
        <ele>134</ele>
        <time>2019-11-28T08:25:03.999Z</time>
      </trkpt>
      <trkpt lat="43.80295" lon="3.96454">
        <ele>133</ele>
        <time>2019-11-28T08:25:39.999Z</time>
      </trkpt>
      <trkpt lat="43.80285" lon="3.96475">
        <ele>132</ele>
        <time>2019-11-28T08:26:10.999Z</time>
      </trkpt>
      <trkpt lat="43.80278" lon="3.965">
        <ele>131</ele>
        <time>2019-11-28T08:26:32.999Z</time>
      </trkpt>
      <trkpt lat="43.80271" lon="3.96524">
        <ele>129</ele>
        <time>2019-11-28T08:26:51.999Z</time>
      </trkpt>
      <trkpt lat="43.80258" lon="3.96543">
        <ele>128</ele>
        <time>2019-11-28T08:27:17.999Z</time>
      </trkpt>
      <trkpt lat="43.80242" lon="3.96557">
        <ele>122</ele>
        <time>2019-11-28T08:27:38.999Z</time>
      </trkpt>
      <trkpt lat="43.8023" lon="3.96576">
        <ele>122</ele>
        <time>2019-11-28T08:28:07.999Z</time>
      </trkpt>
      <trkpt lat="43.80225" lon="3.96601">
        <ele>123</ele>
        <time>2019-11-28T08:29:32.999Z</time>
      </trkpt>
      <trkpt lat="43.80221" lon="3.96626">
        <ele>124</ele>
        <time>2019-11-28T08:30:05.999Z</time>
      </trkpt>
      <trkpt lat="43.80223" lon="3.96653">
        <ele>125</ele>
        <time>2019-11-28T08:30:26.999Z</time>
      </trkpt>
      <trkpt lat="43.80229" lon="3.96677">
        <ele>128</ele>
        <time>2019-11-28T08:30:44.999Z</time>
      </trkpt>
      <trkpt lat="43.80237" lon="3.967">
        <ele>128</ele>
        <time>2019-11-28T08:31:00.999Z</time>
      </trkpt>
      <trkpt lat="43.80246" lon="3.96721">
        <ele>128</ele>
        <time>2019-11-28T08:31:16.999Z</time>
      </trkpt>
      <trkpt lat="43.8026" lon="3.96738">
        <ele>129</ele>
        <time>2019-11-28T08:31:36.999Z</time>
      </trkpt>
      <trkpt lat="43.80263" lon="3.96764">
        <ele>129</ele>
        <time>2019-11-28T08:33:24.999Z</time>
      </trkpt>
      <trkpt lat="43.80272" lon="3.96786">
        <ele>131</ele>
        <time>2019-11-28T08:33:47.999Z</time>
      </trkpt>
      <trkpt lat="43.8028" lon="3.96809">
        <ele>131</ele>
        <time>2019-11-28T08:34:14.999Z</time>
      </trkpt>
      <trkpt lat="43.80282" lon="3.96834">
        <ele>135</ele>
        <time>2019-11-28T08:34:36.999Z</time>
      </trkpt>
      <trkpt lat="43.8028" lon="3.96859">
        <ele>136</ele>
        <time>2019-11-28T08:35:27.999Z</time>
      </trkpt>
      <trkpt lat="43.80277" lon="3.96884">
        <ele>137</ele>
        <time>2019-11-28T08:35:51.999Z</time>
      </trkpt>
      <trkpt lat="43.80275" lon="3.96909">
        <ele>138</ele>
        <time>2019-11-28T08:36:33.999Z</time>
      </trkpt>
      <trkpt lat="43.80277" lon="3.96934">
        <ele>142</ele>
        <time>2019-11-28T08:36:51.999Z</time>
      </trkpt>
      <trkpt lat="43.80279" lon="3.96961">
        <ele>143</ele>
        <time>2019-11-28T08:37:08.999Z</time>
      </trkpt>
      <trkpt lat="43.80285" lon="3.96985">
        <ele>144</ele>
        <time>2019-11-28T08:37:25.999Z</time>
      </trkpt>
      <trkpt lat="43.80291" lon="3.97009">
        <ele>149</ele>
        <time>2019-11-28T08:37:44.999Z</time>
      </trkpt>
      <trkpt lat="43.80298" lon="3.97033">
        <ele>151</ele>
        <time>2019-11-28T08:38:04.999Z</time>
      </trkpt>
      <trkpt lat="43.80304" lon="3.97057">
        <ele>152</ele>
        <time>2019-11-28T08:38:25.999Z</time>
      </trkpt>
      <trkpt lat="43.80312" lon="3.9708">
        <ele>154</ele>
        <time>2019-11-28T08:38:51.999Z</time>
      </trkpt>
      <trkpt lat="43.8032" lon="3.97103">
        <ele>158</ele>
        <time>2019-11-28T08:39:15.999Z</time>
      </trkpt>
      <trkpt lat="43.80326" lon="3.97127">
        <ele>159</ele>
        <time>2019-11-28T08:39:34.999Z</time>
      </trkpt>
      <trkpt lat="43.80336" lon="3.9715">
        <ele>164</ele>
        <time>2019-11-28T08:39:58.999Z</time>
      </trkpt>
      <trkpt lat="43.80341" lon="3.97173">
        <ele>164</ele>
        <time>2019-11-28T08:40:20.999Z</time>
      </trkpt>
      <trkpt lat="43.80347" lon="3.97198">
        <ele>167</ele>
        <time>2019-11-28T08:40:45.999Z</time>
      </trkpt>
      <trkpt lat="43.80348" lon="3.97223">
        <ele>168</ele>
        <time>2019-11-28T08:41:04.999Z</time>
      </trkpt>
      <trkpt lat="43.80336" lon="3.97243">
        <ele>167</ele>
        <time>2019-11-28T08:41:46.999Z</time>
      </trkpt>
      <trkpt lat="43.80326" lon="3.97264">
        <ele>169</ele>
        <time>2019-11-28T08:42:16.999Z</time>
      </trkpt>
      <trkpt lat="43.80338" lon="3.97245">
        <ele>167</ele>
        <time>2019-11-28T08:43:25.999Z</time>
      </trkpt>
      <trkpt lat="43.80352" lon="3.97227">
        <ele>168</ele>
        <time>2019-11-28T08:44:30.999Z</time>
      </trkpt>
      <trkpt lat="43.80341" lon="3.97248">
        <ele>167</ele>
        <time>2019-11-28T08:46:45.999Z</time>
      </trkpt>
      <trkpt lat="43.80327" lon="3.97265">
        <ele>169</ele>
        <time>2019-11-28T08:47:23.999Z</time>
      </trkpt>
      <trkpt lat="43.80314" lon="3.97282">
        <ele>171</ele>
        <time>2019-11-28T08:48:03.999Z</time>
      </trkpt>
      <trkpt lat="43.80301" lon="3.97299">
        <ele>172</ele>
        <time>2019-11-28T08:49:05.999Z</time>
      </trkpt>
      <trkpt lat="43.80294" lon="3.97323">
        <ele>173</ele>
        <time>2019-11-28T08:49:30.999Z</time>
      </trkpt>
      <trkpt lat="43.80285" lon="3.97345">
        <ele>177</ele>
        <time>2019-11-28T08:49:52.999Z</time>
      </trkpt>
      <trkpt lat="43.80273" lon="3.97364">
        <ele>178</ele>
        <time>2019-11-28T08:50:10.999Z</time>
      </trkpt>
      <trkpt lat="43.80255" lon="3.9737">
        <ele>178</ele>
        <time>2019-11-28T08:50:41.999Z</time>
      </trkpt>
      <trkpt lat="43.80236" lon="3.97375">
        <ele>179</ele>
        <time>2019-11-28T08:51:03.999Z</time>
      </trkpt>
      <trkpt lat="43.80218" lon="3.97379">
        <ele>179</ele>
        <time>2019-11-28T08:51:22.999Z</time>
      </trkpt>
      <trkpt lat="43.80202" lon="3.9739">
        <ele>180</ele>
        <time>2019-11-28T08:51:42.999Z</time>
      </trkpt>
      <trkpt lat="43.80185" lon="3.97401">
        <ele>181</ele>
        <time>2019-11-28T08:52:00.999Z</time>
      </trkpt>
      <trkpt lat="43.80169" lon="3.97411">
        <ele>183</ele>
        <time>2019-11-28T08:52:18.999Z</time>
      </trkpt>
      <trkpt lat="43.80161" lon="3.97434">
        <ele>186</ele>
        <time>2019-11-28T08:53:26.999Z</time>
      </trkpt>
      <trkpt lat="43.80169" lon="3.97457">
        <ele>183</ele>
        <time>2019-11-28T08:54:17.999Z</time>
      </trkpt>
      <trkpt lat="43.80177" lon="3.97479">
        <ele>183</ele>
        <time>2019-11-28T08:54:45.999Z</time>
      </trkpt>
      <trkpt lat="43.80184" lon="3.97502">
        <ele>184</ele>
        <time>2019-11-28T08:55:04.999Z</time>
      </trkpt>
      <trkpt lat="43.80189" lon="3.97527">
        <ele>184</ele>
        <time>2019-11-28T08:55:21.999Z</time>
      </trkpt>
      <trkpt lat="43.80197" lon="3.9755">
        <ele>184</ele>
        <time>2019-11-28T08:55:46.999Z</time>
      </trkpt>
      <trkpt lat="43.8019" lon="3.97573">
        <ele>184</ele>
        <time>2019-11-28T08:56:08.999Z</time>
      </trkpt>
      <trkpt lat="43.80172" lon="3.97578">
        <ele>185</ele>
        <time>2019-11-28T08:56:31.999Z</time>
      </trkpt>
      <trkpt lat="43.80185" lon="3.97595">
        <ele>185</ele>
        <time>2019-11-28T08:57:52.999Z</time>
      </trkpt>
      <trkpt lat="43.80195" lon="3.97617">
        <ele>185</ele>
        <time>2019-11-28T08:58:13.999Z</time>
      </trkpt>
      <trkpt lat="43.802" lon="3.97641">
        <ele>186</ele>
        <time>2019-11-28T08:58:29.999Z</time>
      </trkpt>
      <trkpt lat="43.80196" lon="3.97665">
        <ele>186</ele>
        <time>2019-11-28T08:58:46.999Z</time>
      </trkpt>
      <trkpt lat="43.80195" lon="3.97691">
        <ele>188</ele>
        <time>2019-11-28T08:59:14.999Z</time>
      </trkpt>
      <trkpt lat="43.802" lon="3.97715">
        <ele>188</ele>
        <time>2019-11-28T08:59:39.999Z</time>
      </trkpt>
      <trkpt lat="43.80196" lon="3.97741">
        <ele>189</ele>
        <time>2019-11-28T09:00:06.999Z</time>
      </trkpt>
      <trkpt lat="43.80191" lon="3.97766">
        <ele>190</ele>
        <time>2019-11-28T09:00:25.999Z</time>
      </trkpt>
      <trkpt lat="43.80185" lon="3.9779">
        <ele>190</ele>
        <time>2019-11-28T09:00:49.999Z</time>
      </trkpt>
      <trkpt lat="43.80183" lon="3.97815">
        <ele>191</ele>
        <time>2019-11-28T09:01:10.999Z</time>
      </trkpt>
      <trkpt lat="43.80183" lon="3.97841">
        <ele>192</ele>
        <time>2019-11-28T09:01:32.999Z</time>
      </trkpt>
      <trkpt lat="43.80182" lon="3.97867">
        <ele>192</ele>
        <time>2019-11-28T09:01:54.999Z</time>
      </trkpt>
      <trkpt lat="43.80182" lon="3.97892">
        <ele>192</ele>
        <time>2019-11-28T09:02:15.999Z</time>
      </trkpt>
      <trkpt lat="43.80174" lon="3.97915">
        <ele>194</ele>
        <time>2019-11-28T09:02:41.999Z</time>
      </trkpt>
      <trkpt lat="43.80167" lon="3.97938">
        <ele>193</ele>
        <time>2019-11-28T09:03:02.999Z</time>
      </trkpt>
      <trkpt lat="43.80156" lon="3.9796">
        <ele>199</ele>
        <time>2019-11-28T09:03:25.999Z</time>
      </trkpt>
      <trkpt lat="43.80155" lon="3.97985">
        <ele>198</ele>
        <time>2019-11-28T09:03:51.999Z</time>
      </trkpt>
      <trkpt lat="43.80155" lon="3.98011">
        <ele>197</ele>
        <time>2019-11-28T09:04:18.999Z</time>
      </trkpt>
      <trkpt lat="43.80153" lon="3.98036">
        <ele>197</ele>
        <time>2019-11-28T09:04:42.999Z</time>
      </trkpt>
      <trkpt lat="43.80159" lon="3.98061">
        <ele>195</ele>
        <time>2019-11-28T09:05:07.999Z</time>
      </trkpt>
      <trkpt lat="43.8016" lon="3.98086">
        <ele>191</ele>
        <time>2019-11-28T09:05:25.999Z</time>
      </trkpt>
      <trkpt lat="43.80161" lon="3.98112">
        <ele>192</ele>
        <time>2019-11-28T09:05:42.999Z</time>
      </trkpt>
      <trkpt lat="43.80167" lon="3.98136">
        <ele>191</ele>
        <time>2019-11-28T09:06:01.000Z</time>
      </trkpt>
      <trkpt lat="43.80168" lon="3.98161">
        <ele>186</ele>
        <time>2019-11-28T09:06:52.000Z</time>
      </trkpt>
      <trkpt lat="43.80183" lon="3.98146">
        <ele>186</ele>
        <time>2019-11-28T09:16:07.000Z</time>
      </trkpt>
      <trkpt lat="43.80199" lon="3.9813">
        <ele>186</ele>
        <time>2019-11-28T09:16:24.000Z</time>
      </trkpt>
      <trkpt lat="43.80212" lon="3.98112">
        <ele>186</ele>
        <time>2019-11-28T09:16:38.000Z</time>
      </trkpt>
      <trkpt lat="43.80229" lon="3.981">
        <ele>186</ele>
        <time>2019-11-28T09:16:53.000Z</time>
      </trkpt>
      <trkpt lat="43.80244" lon="3.98086">
        <ele>186</ele>
        <time>2019-11-28T09:17:08.000Z</time>
      </trkpt>
      <trkpt lat="43.80262" lon="3.98086">
        <ele>185</ele>
        <time>2019-11-28T09:17:27.000Z</time>
      </trkpt>
      <trkpt lat="43.8028" lon="3.98083">
        <ele>185</ele>
        <time>2019-11-28T09:17:41.000Z</time>
      </trkpt>
      <trkpt lat="43.80299" lon="3.98082">
        <ele>187</ele>
        <time>2019-11-28T09:17:58.000Z</time>
      </trkpt>
      <trkpt lat="43.80316" lon="3.98074">
        <ele>187</ele>
        <time>2019-11-28T09:18:15.000Z</time>
      </trkpt>
      <trkpt lat="43.80332" lon="3.98062">
        <ele>187</ele>
        <time>2019-11-28T09:18:29.000Z</time>
      </trkpt>
      <trkpt lat="43.80347" lon="3.98046">
        <ele>188</ele>
        <time>2019-11-28T09:18:44.000Z</time>
      </trkpt>
      <trkpt lat="43.8036" lon="3.98027">
        <ele>188</ele>
        <time>2019-11-28T09:18:59.000Z</time>
      </trkpt>
      <trkpt lat="43.80372" lon="3.98008">
        <ele>189</ele>
        <time>2019-11-28T09:19:16.000Z</time>
      </trkpt>
      <trkpt lat="43.80387" lon="3.97994">
        <ele>191</ele>
        <time>2019-11-28T09:19:32.000Z</time>
      </trkpt>
      <trkpt lat="43.80403" lon="3.97982">
        <ele>191</ele>
        <time>2019-11-28T09:19:48.000Z</time>
      </trkpt>
      <trkpt lat="43.80416" lon="3.97964">
        <ele>191</ele>
        <time>2019-11-28T09:20:06.000Z</time>
      </trkpt>
      <trkpt lat="43.80428" lon="3.97944">
        <ele>194</ele>
        <time>2019-11-28T09:20:22.000Z</time>
      </trkpt>
      <trkpt lat="43.80441" lon="3.97926">
        <ele>194</ele>
        <time>2019-11-28T09:20:39.000Z</time>
      </trkpt>
      <trkpt lat="43.8045" lon="3.97902">
        <ele>196</ele>
        <time>2019-11-28T09:20:57.000Z</time>
      </trkpt>
      <trkpt lat="43.80467" lon="3.97892">
        <ele>197</ele>
        <time>2019-11-28T09:21:14.000Z</time>
      </trkpt>
      <trkpt lat="43.80485" lon="3.97888">
        <ele>198</ele>
        <time>2019-11-28T09:21:31.000Z</time>
      </trkpt>
      <trkpt lat="43.80498" lon="3.9787">
        <ele>198</ele>
        <time>2019-11-28T09:21:52.000Z</time>
      </trkpt>
      <trkpt lat="43.80515" lon="3.97861">
        <ele>201</ele>
        <time>2019-11-28T09:22:15.000Z</time>
      </trkpt>
      <trkpt lat="43.80533" lon="3.97857">
        <ele>202</ele>
        <time>2019-11-28T09:22:34.000Z</time>
      </trkpt>
      <trkpt lat="43.80551" lon="3.97847">
        <ele>202</ele>
        <time>2019-11-28T09:22:48.000Z</time>
      </trkpt>
      <trkpt lat="43.8057" lon="3.97842">
        <ele>202</ele>
        <time>2019-11-28T09:23:04.000Z</time>
      </trkpt>
      <trkpt lat="43.80588" lon="3.97837">
        <ele>203</ele>
        <time>2019-11-28T09:23:21.000Z</time>
      </trkpt>
      <trkpt lat="43.80606" lon="3.97828">
        <ele>202</ele>
        <time>2019-11-28T09:23:37.000Z</time>
      </trkpt>
      <trkpt lat="43.80623" lon="3.97819">
        <ele>202</ele>
        <time>2019-11-28T09:23:51.000Z</time>
      </trkpt>
      <trkpt lat="43.8064" lon="3.97808">
        <ele>202</ele>
        <time>2019-11-28T09:24:06.000Z</time>
      </trkpt>
      <trkpt lat="43.80652" lon="3.9779">
        <ele>202</ele>
        <time>2019-11-28T09:24:22.000Z</time>
      </trkpt>
      <trkpt lat="43.8067" lon="3.9778">
        <ele>201</ele>
        <time>2019-11-28T09:24:38.000Z</time>
      </trkpt>
      <trkpt lat="43.80689" lon="3.97775">
        <ele>202</ele>
        <time>2019-11-28T09:24:55.000Z</time>
      </trkpt>
      <trkpt lat="43.80701" lon="3.97795">
        <ele>202</ele>
        <time>2019-11-28T09:25:22.000Z</time>
      </trkpt>
      <trkpt lat="43.8071" lon="3.97817">
        <ele>202</ele>
        <time>2019-11-28T09:25:42.000Z</time>
      </trkpt>
      <trkpt lat="43.80712" lon="3.97843">
        <ele>201</ele>
        <time>2019-11-28T09:26:05.000Z</time>
      </trkpt>
      <trkpt lat="43.80715" lon="3.97868">
        <ele>201</ele>
        <time>2019-11-28T09:26:21.000Z</time>
      </trkpt>
      <trkpt lat="43.80717" lon="3.97894">
        <ele>201</ele>
        <time>2019-11-28T09:26:41.000Z</time>
      </trkpt>
      <trkpt lat="43.80715" lon="3.97919">
        <ele>199</ele>
        <time>2019-11-28T09:26:58.000Z</time>
      </trkpt>
      <trkpt lat="43.80725" lon="3.97942">
        <ele>199</ele>
        <time>2019-11-28T09:27:25.000Z</time>
      </trkpt>
      <trkpt lat="43.80738" lon="3.97961">
        <ele>198</ele>
        <time>2019-11-28T09:27:39.000Z</time>
      </trkpt>
      <trkpt lat="43.80743" lon="3.97985">
        <ele>197</ele>
        <time>2019-11-28T09:28:01.000Z</time>
      </trkpt>
      <trkpt lat="43.80743" lon="3.98011">
        <ele>195</ele>
        <time>2019-11-28T09:28:18.000Z</time>
      </trkpt>
      <trkpt lat="43.80743" lon="3.98036">
        <ele>193</ele>
        <time>2019-11-28T09:28:35.000Z</time>
      </trkpt>
      <trkpt lat="43.80738" lon="3.98061">
        <ele>192</ele>
        <time>2019-11-28T09:29:08.000Z</time>
      </trkpt>
      <trkpt lat="43.80749" lon="3.98082">
        <ele>190</ele>
        <time>2019-11-28T09:29:37.000Z</time>
      </trkpt>
      <trkpt lat="43.8075" lon="3.98108">
        <ele>190</ele>
        <time>2019-11-28T09:29:58.000Z</time>
      </trkpt>
      <trkpt lat="43.8075" lon="3.98133">
        <ele>188</ele>
        <time>2019-11-28T09:30:25.000Z</time>
      </trkpt>
      <trkpt lat="43.80749" lon="3.98159">
        <ele>187</ele>
        <time>2019-11-28T09:30:48.000Z</time>
      </trkpt>
      <trkpt lat="43.80764" lon="3.98173">
        <ele>188</ele>
        <time>2019-11-28T09:32:12.000Z</time>
      </trkpt>
      <trkpt lat="43.80782" lon="3.98167">
        <ele>189</ele>
        <time>2019-11-28T09:32:29.000Z</time>
      </trkpt>
      <trkpt lat="43.808" lon="3.98166">
        <ele>189</ele>
        <time>2019-11-28T09:32:50.000Z</time>
      </trkpt>
      <trkpt lat="43.80818" lon="3.9817">
        <ele>189</ele>
        <time>2019-11-28T09:33:01.000Z</time>
      </trkpt>
      <trkpt lat="43.80835" lon="3.98161">
        <ele>189</ele>
        <time>2019-11-28T09:33:34.000Z</time>
      </trkpt>
      <trkpt lat="43.80851" lon="3.98148">
        <ele>190</ele>
        <time>2019-11-28T09:33:52.000Z</time>
      </trkpt>
      <trkpt lat="43.80869" lon="3.98142">
        <ele>190</ele>
        <time>2019-11-28T09:34:11.000Z</time>
      </trkpt>
      <trkpt lat="43.80887" lon="3.98133">
        <ele>191</ele>
        <time>2019-11-28T09:34:31.000Z</time>
      </trkpt>
      <trkpt lat="43.80904" lon="3.98126">
        <ele>191</ele>
        <time>2019-11-28T09:34:48.000Z</time>
      </trkpt>
      <trkpt lat="43.80923" lon="3.98126">
        <ele>189</ele>
        <time>2019-11-28T09:35:14.000Z</time>
      </trkpt>
      <trkpt lat="43.80942" lon="3.98128">
        <ele>189</ele>
        <time>2019-11-28T09:35:38.000Z</time>
      </trkpt>
      <trkpt lat="43.80961" lon="3.98135">
        <ele>189</ele>
        <time>2019-11-28T09:35:51.000Z</time>
      </trkpt>
      <trkpt lat="43.80959" lon="3.98159">
        <ele>189</ele>
        <time>2019-11-28T09:36:23.000Z</time>
      </trkpt>
      <trkpt lat="43.80947" lon="3.98178">
        <ele>187</ele>
        <time>2019-11-28T09:36:39.000Z</time>
      </trkpt>
      <trkpt lat="43.80936" lon="3.98199">
        <ele>187</ele>
        <time>2019-11-28T09:36:56.000Z</time>
      </trkpt>
      <trkpt lat="43.80924" lon="3.98218">
        <ele>186</ele>
        <time>2019-11-28T09:37:07.000Z</time>
      </trkpt>
      <trkpt lat="43.8091" lon="3.98236">
        <ele>188</ele>
        <time>2019-11-28T09:37:22.000Z</time>
      </trkpt>
      <trkpt lat="43.80902" lon="3.98259">
        <ele>188</ele>
        <time>2019-11-28T09:37:35.000Z</time>
      </trkpt>
      <trkpt lat="43.809" lon="3.98284">
        <ele>189</ele>
        <time>2019-11-28T09:37:50.000Z</time>
      </trkpt>
      <trkpt lat="43.80897" lon="3.98309">
        <ele>189</ele>
        <time>2019-11-28T09:38:06.000Z</time>
      </trkpt>
      <trkpt lat="43.80899" lon="3.98336">
        <ele>189</ele>
        <time>2019-11-28T09:38:23.000Z</time>
      </trkpt>
      <trkpt lat="43.80903" lon="3.98362">
        <ele>190</ele>
        <time>2019-11-28T09:38:39.000Z</time>
      </trkpt>
      <trkpt lat="43.80908" lon="3.98387">
        <ele>191</ele>
        <time>2019-11-28T09:38:52.000Z</time>
      </trkpt>
      <trkpt lat="43.80912" lon="3.98413">
        <ele>192</ele>
        <time>2019-11-28T09:39:07.000Z</time>
      </trkpt>
      <trkpt lat="43.80918" lon="3.98437">
        <ele>191</ele>
        <time>2019-11-28T09:39:23.000Z</time>
      </trkpt>
      <trkpt lat="43.80919" lon="3.98463">
        <ele>191</ele>
        <time>2019-11-28T09:39:40.000Z</time>
      </trkpt>
      <trkpt lat="43.80924" lon="3.98488">
        <ele>192</ele>
        <time>2019-11-28T09:39:56.000Z</time>
      </trkpt>
      <trkpt lat="43.80927" lon="3.98514">
        <ele>193</ele>
        <time>2019-11-28T09:40:11.000Z</time>
      </trkpt>
      <trkpt lat="43.80934" lon="3.98538">
        <ele>193</ele>
        <time>2019-11-28T09:40:25.000Z</time>
      </trkpt>
      <trkpt lat="43.80936" lon="3.98563">
        <ele>193</ele>
        <time>2019-11-28T09:40:40.000Z</time>
      </trkpt>
      <trkpt lat="43.80939" lon="3.98588">
        <ele>195</ele>
        <time>2019-11-28T09:40:54.000Z</time>
      </trkpt>
      <trkpt lat="43.80946" lon="3.98613">
        <ele>195</ele>
        <time>2019-11-28T09:41:09.000Z</time>
      </trkpt>
      <trkpt lat="43.80955" lon="3.98636">
        <ele>195</ele>
        <time>2019-11-28T09:41:24.000Z</time>
      </trkpt>
      <trkpt lat="43.80957" lon="3.98661">
        <ele>196</ele>
        <time>2019-11-28T09:41:40.000Z</time>
      </trkpt>
      <trkpt lat="43.8096" lon="3.98687">
        <ele>197</ele>
        <time>2019-11-28T09:41:57.000Z</time>
      </trkpt>
      <trkpt lat="43.80961" lon="3.98714">
        <ele>198</ele>
        <time>2019-11-28T09:42:12.000Z</time>
      </trkpt>
      <trkpt lat="43.8096" lon="3.98739">
        <ele>198</ele>
        <time>2019-11-28T09:42:26.000Z</time>
      </trkpt>
      <trkpt lat="43.80962" lon="3.98765">
        <ele>199</ele>
        <time>2019-11-28T09:42:43.000Z</time>
      </trkpt>
      <trkpt lat="43.80966" lon="3.9879">
        <ele>198</ele>
        <time>2019-11-28T09:42:57.000Z</time>
      </trkpt>
      <trkpt lat="43.80969" lon="3.98815">
        <ele>198</ele>
        <time>2019-11-28T09:43:11.000Z</time>
      </trkpt>
      <trkpt lat="43.80965" lon="3.9884">
        <ele>198</ele>
        <time>2019-11-28T09:43:26.000Z</time>
      </trkpt>
      <trkpt lat="43.80967" lon="3.98866">
        <ele>199</ele>
        <time>2019-11-28T09:43:41.000Z</time>
      </trkpt>
      <trkpt lat="43.80968" lon="3.98892">
        <ele>199</ele>
        <time>2019-11-28T09:43:56.000Z</time>
      </trkpt>
      <trkpt lat="43.80972" lon="3.98918">
        <ele>199</ele>
        <time>2019-11-28T09:44:10.000Z</time>
      </trkpt>
      <trkpt lat="43.80976" lon="3.98943">
        <ele>199</ele>
        <time>2019-11-28T09:44:24.000Z</time>
      </trkpt>
      <trkpt lat="43.80982" lon="3.98967">
        <ele>199</ele>
        <time>2019-11-28T09:44:39.000Z</time>
      </trkpt>
      <trkpt lat="43.80989" lon="3.9899">
        <ele>198</ele>
        <time>2019-11-28T09:44:54.000Z</time>
      </trkpt>
      <trkpt lat="43.80997" lon="3.99014">
        <ele>199</ele>
        <time>2019-11-28T09:45:09.000Z</time>
      </trkpt>
      <trkpt lat="43.81003" lon="3.99039">
        <ele>194</ele>
        <time>2019-11-28T09:45:23.000Z</time>
      </trkpt>
      <trkpt lat="43.81008" lon="3.99064">
        <ele>195</ele>
        <time>2019-11-28T09:45:37.000Z</time>
      </trkpt>
      <trkpt lat="43.81011" lon="3.9909">
        <ele>195</ele>
        <time>2019-11-28T09:45:51.000Z</time>
      </trkpt>
      <trkpt lat="43.81014" lon="3.99114">
        <ele>194</ele>
        <time>2019-11-28T09:46:04.000Z</time>
      </trkpt>
      <trkpt lat="43.81012" lon="3.9914">
        <ele>194</ele>
        <time>2019-11-28T09:46:18.000Z</time>
      </trkpt>
      <trkpt lat="43.81012" lon="3.99165">
        <ele>197</ele>
        <time>2019-11-28T09:46:34.000Z</time>
      </trkpt>
      <trkpt lat="43.81017" lon="3.9919">
        <ele>195</ele>
        <time>2019-11-28T09:46:49.000Z</time>
      </trkpt>
      <trkpt lat="43.81026" lon="3.99212">
        <ele>195</ele>
        <time>2019-11-28T09:47:04.000Z</time>
      </trkpt>
      <trkpt lat="43.81036" lon="3.99233">
        <ele>194</ele>
        <time>2019-11-28T09:47:20.000Z</time>
      </trkpt>
      <trkpt lat="43.81042" lon="3.99257">
        <ele>197</ele>
        <time>2019-11-28T09:47:34.000Z</time>
      </trkpt>
      <trkpt lat="43.81034" lon="3.99279">
        <ele>198</ele>
        <time>2019-11-28T09:47:52.000Z</time>
      </trkpt>
      <trkpt lat="43.81024" lon="3.99302">
        <ele>200</ele>
        <time>2019-11-28T09:48:08.000Z</time>
      </trkpt>
      <trkpt lat="43.81018" lon="3.99327">
        <ele>202</ele>
        <time>2019-11-28T09:48:24.000Z</time>
      </trkpt>
      <trkpt lat="43.81016" lon="3.99354">
        <ele>204</ele>
        <time>2019-11-28T09:48:39.000Z</time>
      </trkpt>
      <trkpt lat="43.81027" lon="3.99375">
        <ele>203</ele>
        <time>2019-11-28T09:48:56.000Z</time>
      </trkpt>
      <trkpt lat="43.81043" lon="3.9939">
        <ele>203</ele>
        <time>2019-11-28T09:49:11.000Z</time>
      </trkpt>
      <trkpt lat="43.81056" lon="3.99407">
        <ele>203</ele>
        <time>2019-11-28T09:49:26.000Z</time>
      </trkpt>
      <trkpt lat="43.81067" lon="3.99427">
        <ele>204</ele>
        <time>2019-11-28T09:49:40.000Z</time>
      </trkpt>
      <trkpt lat="43.81075" lon="3.9945">
        <ele>204</ele>
        <time>2019-11-28T09:49:55.000Z</time>
      </trkpt>
      <trkpt lat="43.81083" lon="3.99472">
        <ele>200</ele>
        <time>2019-11-28T09:50:09.000Z</time>
      </trkpt>
      <trkpt lat="43.8109" lon="3.99497">
        <ele>202</ele>
        <time>2019-11-28T09:50:25.000Z</time>
      </trkpt>
      <trkpt lat="43.81097" lon="3.99521">
        <ele>202</ele>
        <time>2019-11-28T09:50:42.000Z</time>
      </trkpt>
      <trkpt lat="43.81112" lon="3.99536">
        <ele>202</ele>
        <time>2019-11-28T09:50:58.000Z</time>
      </trkpt>
      <trkpt lat="43.81129" lon="3.99544">
        <ele>201</ele>
        <time>2019-11-28T09:51:12.000Z</time>
      </trkpt>
      <trkpt lat="43.81145" lon="3.99559">
        <ele>201</ele>
        <time>2019-11-28T09:51:28.000Z</time>
      </trkpt>
      <trkpt lat="43.8116" lon="3.99576">
        <ele>200</ele>
        <time>2019-11-28T09:51:42.000Z</time>
      </trkpt>
      <trkpt lat="43.81175" lon="3.99589">
        <ele>199</ele>
        <time>2019-11-28T09:51:55.000Z</time>
      </trkpt>
      <trkpt lat="43.81191" lon="3.99604">
        <ele>198</ele>
        <time>2019-11-28T09:52:08.000Z</time>
      </trkpt>
      <trkpt lat="43.81206" lon="3.99617">
        <ele>197</ele>
        <time>2019-11-28T09:52:24.000Z</time>
      </trkpt>
      <trkpt lat="43.81222" lon="3.9963">
        <ele>196</ele>
        <time>2019-11-28T09:52:40.000Z</time>
      </trkpt>
      <trkpt lat="43.81238" lon="3.99643">
        <ele>196</ele>
        <time>2019-11-28T09:52:55.000Z</time>
      </trkpt>
      <trkpt lat="43.81254" lon="3.99657">
        <ele>193</ele>
        <time>2019-11-28T09:53:11.000Z</time>
      </trkpt>
      <trkpt lat="43.8127" lon="3.9967">
        <ele>192</ele>
        <time>2019-11-28T09:53:25.000Z</time>
      </trkpt>
      <trkpt lat="43.81285" lon="3.99685">
        <ele>191</ele>
        <time>2019-11-28T09:53:43.000Z</time>
      </trkpt>
      <trkpt lat="43.81296" lon="3.99705">
        <ele>190</ele>
        <time>2019-11-28T09:53:57.000Z</time>
      </trkpt>
      <trkpt lat="43.81308" lon="3.99725">
        <ele>190</ele>
        <time>2019-11-28T09:54:11.000Z</time>
      </trkpt>
      <trkpt lat="43.81319" lon="3.99745">
        <ele>189</ele>
        <time>2019-11-28T09:54:26.000Z</time>
      </trkpt>
      <trkpt lat="43.81337" lon="3.99756">
        <ele>187</ele>
        <time>2019-11-28T09:54:39.000Z</time>
      </trkpt>
      <trkpt lat="43.81352" lon="3.9977">
        <ele>185</ele>
        <time>2019-11-28T09:54:55.000Z</time>
      </trkpt>
      <trkpt lat="43.81362" lon="3.99792">
        <ele>184</ele>
        <time>2019-11-28T09:55:10.000Z</time>
      </trkpt>
      <trkpt lat="43.81377" lon="3.99807">
        <ele>183</ele>
        <time>2019-11-28T09:55:24.000Z</time>
      </trkpt>
      <trkpt lat="43.81395" lon="3.99815">
        <ele>183</ele>
        <time>2019-11-28T09:55:38.000Z</time>
      </trkpt>
      <trkpt lat="43.81413" lon="3.99822">
        <ele>183</ele>
        <time>2019-11-28T09:55:52.000Z</time>
      </trkpt>
      <trkpt lat="43.8143" lon="3.99835">
        <ele>181</ele>
        <time>2019-11-28T09:56:06.000Z</time>
      </trkpt>
      <trkpt lat="43.81444" lon="3.99852">
        <ele>180</ele>
        <time>2019-11-28T09:56:21.000Z</time>
      </trkpt>
      <trkpt lat="43.81455" lon="3.99874">
        <ele>179</ele>
        <time>2019-11-28T09:56:34.000Z</time>
      </trkpt>
      <trkpt lat="43.81464" lon="3.99897">
        <ele>179</ele>
        <time>2019-11-28T09:56:50.000Z</time>
      </trkpt>
      <trkpt lat="43.81476" lon="3.99915">
        <ele>179</ele>
        <time>2019-11-28T09:57:06.000Z</time>
      </trkpt>
      <trkpt lat="43.81484" lon="3.99937">
        <ele>177</ele>
        <time>2019-11-28T09:57:19.000Z</time>
      </trkpt>
      <trkpt lat="43.81494" lon="3.9996">
        <ele>177</ele>
        <time>2019-11-28T09:57:33.000Z</time>
      </trkpt>
      <trkpt lat="43.81503" lon="3.99982">
        <ele>175</ele>
        <time>2019-11-28T09:58:27.000Z</time>
      </trkpt>
      <trkpt lat="43.81517" lon="3.99999">
        <ele>175</ele>
        <time>2019-11-28T10:00:51.000Z</time>
      </trkpt>
      <trkpt lat="43.81535" lon="4.00006">
        <ele>175</ele>
        <time>2019-11-28T10:01:06.000Z</time>
      </trkpt>
      <trkpt lat="43.81553" lon="4.00015">
        <ele>174</ele>
        <time>2019-11-28T10:01:22.000Z</time>
      </trkpt>
      <trkpt lat="43.81571" lon="4.0002">
        <ele>174</ele>
        <time>2019-11-28T10:01:37.000Z</time>
      </trkpt>
      <trkpt lat="43.8157" lon="4.00047">
        <ele>174</ele>
        <time>2019-11-28T10:02:07.000Z</time>
      </trkpt>
      <trkpt lat="43.81564" lon="4.00073">
        <ele>174</ele>
        <time>2019-11-28T10:02:26.000Z</time>
      </trkpt>
      <trkpt lat="43.81558" lon="4.00097">
        <ele>174</ele>
        <time>2019-11-28T10:02:45.000Z</time>
      </trkpt>
      <trkpt lat="43.8155" lon="4.0012">
        <ele>174</ele>
        <time>2019-11-28T10:03:02.000Z</time>
      </trkpt>
      <trkpt lat="43.8154" lon="4.00141">
        <ele>174</ele>
        <time>2019-11-28T10:03:18.000Z</time>
      </trkpt>
      <trkpt lat="43.81533" lon="4.00164">
        <ele>174</ele>
        <time>2019-11-28T10:03:34.000Z</time>
      </trkpt>
      <trkpt lat="43.81532" lon="4.0019">
        <ele>175</ele>
        <time>2019-11-28T10:03:49.000Z</time>
      </trkpt>
      <trkpt lat="43.81526" lon="4.00216">
        <ele>175</ele>
        <time>2019-11-28T10:04:07.000Z</time>
      </trkpt>
      <trkpt lat="43.81528" lon="4.0024">
        <ele>176</ele>
        <time>2019-11-28T10:04:25.000Z</time>
      </trkpt>
      <trkpt lat="43.81533" lon="4.00266">
        <ele>179</ele>
        <time>2019-11-28T10:04:41.000Z</time>
      </trkpt>
      <trkpt lat="43.81537" lon="4.00291">
        <ele>179</ele>
        <time>2019-11-28T10:04:56.000Z</time>
      </trkpt>
      <trkpt lat="43.81541" lon="4.00318">
        <ele>180</ele>
        <time>2019-11-28T10:05:11.000Z</time>
      </trkpt>
      <trkpt lat="43.81552" lon="4.00338">
        <ele>187</ele>
        <time>2019-11-28T10:05:30.000Z</time>
      </trkpt>
      <trkpt lat="43.81563" lon="4.00361">
        <ele>188</ele>
        <time>2019-11-28T10:05:48.000Z</time>
      </trkpt>
      <trkpt lat="43.81572" lon="4.00382">
        <ele>190</ele>
        <time>2019-11-28T10:06:07.000Z</time>
      </trkpt>
      <trkpt lat="43.81584" lon="4.00401">
        <ele>189</ele>
        <time>2019-11-28T10:06:27.000Z</time>
      </trkpt>
      <trkpt lat="43.816" lon="4.00414">
        <ele>189</ele>
        <time>2019-11-28T10:06:44.000Z</time>
      </trkpt>
      <trkpt lat="43.81617" lon="4.00424">
        <ele>197</ele>
        <time>2019-11-28T10:07:02.000Z</time>
      </trkpt>
      <trkpt lat="43.81636" lon="4.00428">
        <ele>196</ele>
        <time>2019-11-28T10:07:20.000Z</time>
      </trkpt>
      <trkpt lat="43.81654" lon="4.00433">
        <ele>195</ele>
        <time>2019-11-28T10:07:39.000Z</time>
      </trkpt>
      <trkpt lat="43.81672" lon="4.00437">
        <ele>191</ele>
        <time>2019-11-28T10:07:54.000Z</time>
      </trkpt>
      <trkpt lat="43.8169" lon="4.00445">
        <ele>191</ele>
        <time>2019-11-28T10:08:08.000Z</time>
      </trkpt>
      <trkpt lat="43.81707" lon="4.00454">
        <ele>191</ele>
        <time>2019-11-28T10:08:23.000Z</time>
      </trkpt>
      <trkpt lat="43.81723" lon="4.00468">
        <ele>191</ele>
        <time>2019-11-28T10:08:39.000Z</time>
      </trkpt>
      <trkpt lat="43.81732" lon="4.0049">
        <ele>191</ele>
        <time>2019-11-28T10:08:55.000Z</time>
      </trkpt>
      <trkpt lat="43.81727" lon="4.00514">
        <ele>197</ele>
        <time>2019-11-28T10:09:14.000Z</time>
      </trkpt>
      <trkpt lat="43.81722" lon="4.00538">
        <ele>199</ele>
        <time>2019-11-28T10:09:34.000Z</time>
      </trkpt>
      <trkpt lat="43.81706" lon="4.00551">
        <ele>200</ele>
        <time>2019-11-28T10:10:00.000Z</time>
      </trkpt>
      <trkpt lat="43.81688" lon="4.00548">
        <ele>202</ele>
        <time>2019-11-28T10:10:24.000Z</time>
      </trkpt>
      <trkpt lat="43.8167" lon="4.00544">
        <ele>203</ele>
        <time>2019-11-28T10:10:41.000Z</time>
      </trkpt>
      <trkpt lat="43.81651" lon="4.00542">
        <ele>210</ele>
        <time>2019-11-28T10:11:01.000Z</time>
      </trkpt>
      <trkpt lat="43.81633" lon="4.00546">
        <ele>211</ele>
        <time>2019-11-28T10:11:18.000Z</time>
      </trkpt>
      <trkpt lat="43.81615" lon="4.0055">
        <ele>212</ele>
        <time>2019-11-28T10:11:37.000Z</time>
      </trkpt>
      <trkpt lat="43.81598" lon="4.00558">
        <ele>214</ele>
        <time>2019-11-28T10:11:56.000Z</time>
      </trkpt>
      <trkpt lat="43.81593" lon="4.00582">
        <ele>217</ele>
        <time>2019-11-28T10:12:32.000Z</time>
      </trkpt>
      <trkpt lat="43.81608" lon="4.00598">
        <ele>218</ele>
        <time>2019-11-28T10:12:50.000Z</time>
      </trkpt>
      <trkpt lat="43.81624" lon="4.00612">
        <ele>217</ele>
        <time>2019-11-28T10:13:06.000Z</time>
      </trkpt>
      <trkpt lat="43.81637" lon="4.00629">
        <ele>216</ele>
        <time>2019-11-28T10:15:18.000Z</time>
      </trkpt>
      <trkpt lat="43.81653" lon="4.00642">
        <ele>216</ele>
        <time>2019-11-28T10:15:32.000Z</time>
      </trkpt>
      <trkpt lat="43.81667" lon="4.00658">
        <ele>211</ele>
        <time>2019-11-28T10:15:46.000Z</time>
      </trkpt>
      <trkpt lat="43.81681" lon="4.00676">
        <ele>213</ele>
        <time>2019-11-28T10:16:00.000Z</time>
      </trkpt>
      <trkpt lat="43.81694" lon="4.00694">
        <ele>212</ele>
        <time>2019-11-28T10:16:14.000Z</time>
      </trkpt>
      <trkpt lat="43.81708" lon="4.0071">
        <ele>212</ele>
        <time>2019-11-28T10:16:30.000Z</time>
      </trkpt>
      <trkpt lat="43.81721" lon="4.00727">
        <ele>212</ele>
        <time>2019-11-28T10:16:42.000Z</time>
      </trkpt>
      <trkpt lat="43.81734" lon="4.00746">
        <ele>212</ele>
        <time>2019-11-28T10:16:55.999Z</time>
      </trkpt>
      <trkpt lat="43.81746" lon="4.00767">
        <ele>213</ele>
        <time>2019-11-28T10:17:10.999Z</time>
      </trkpt>
      <trkpt lat="43.81759" lon="4.00785">
        <ele>211</ele>
        <time>2019-11-28T10:17:25.999Z</time>
      </trkpt>
      <trkpt lat="43.81766" lon="4.00809">
        <ele>211</ele>
        <time>2019-11-28T10:17:44.999Z</time>
      </trkpt>
      <trkpt lat="43.81765" lon="4.00834">
        <ele>212</ele>
        <time>2019-11-28T10:18:03.999Z</time>
      </trkpt>
      <trkpt lat="43.81773" lon="4.00857">
        <ele>212</ele>
        <time>2019-11-28T10:18:49.999Z</time>
      </trkpt>
      <trkpt lat="43.81773" lon="4.0085">
        <ele>212</ele>
        <time>2019-11-28T10:25:01.217Z</time>
      </trkpt>
      <trkpt lat="43.81764" lon="4.00828">
        <ele>212</ele>
        <time>2019-11-28T10:26:50.999Z</time>
      </trkpt>
      <trkpt lat="43.81769" lon="4.00803">
        <ele>211</ele>
        <time>2019-11-28T10:27:12.999Z</time>
      </trkpt>
      <trkpt lat="43.81783" lon="4.00785">
        <ele>211</ele>
        <time>2019-11-28T10:27:29.999Z</time>
      </trkpt>
      <trkpt lat="43.81802" lon="4.00786">
        <ele>211</ele>
        <time>2019-11-28T10:27:45.999Z</time>
      </trkpt>
      <trkpt lat="43.8182" lon="4.00789">
        <ele>211</ele>
        <time>2019-11-28T10:28:00.999Z</time>
      </trkpt>
      <trkpt lat="43.81838" lon="4.00794">
        <ele>211</ele>
        <time>2019-11-28T10:28:16.999Z</time>
      </trkpt>
      <trkpt lat="43.81855" lon="4.00808">
        <ele>211</ele>
        <time>2019-11-28T10:28:30.999Z</time>
      </trkpt>
      <trkpt lat="43.81872" lon="4.00816">
        <ele>211</ele>
        <time>2019-11-28T10:28:47.999Z</time>
      </trkpt>
      <trkpt lat="43.81891" lon="4.0082">
        <ele>211</ele>
        <time>2019-11-28T10:29:05.999Z</time>
      </trkpt>
      <trkpt lat="43.81907" lon="4.00832">
        <ele>211</ele>
        <time>2019-11-28T10:29:21.999Z</time>
      </trkpt>
      <trkpt lat="43.81922" lon="4.00847">
        <ele>211</ele>
        <time>2019-11-28T10:29:36.999Z</time>
      </trkpt>
      <trkpt lat="43.81938" lon="4.00859">
        <ele>212</ele>
        <time>2019-11-28T10:29:52.999Z</time>
      </trkpt>
      <trkpt lat="43.81954" lon="4.0087">
        <ele>212</ele>
        <time>2019-11-28T10:30:06.999Z</time>
      </trkpt>
      <trkpt lat="43.81969" lon="4.00884">
        <ele>212</ele>
        <time>2019-11-28T10:30:22.999Z</time>
      </trkpt>
      <trkpt lat="43.81978" lon="4.00906">
        <ele>212</ele>
        <time>2019-11-28T10:30:41.999Z</time>
      </trkpt>
      <trkpt lat="43.81986" lon="4.00929">
        <ele>213</ele>
        <time>2019-11-28T10:31:07.999Z</time>
      </trkpt>
      <trkpt lat="43.81996" lon="4.0095">
        <ele>213</ele>
        <time>2019-11-28T10:31:27.999Z</time>
      </trkpt>
      <trkpt lat="43.81999" lon="4.00975">
        <ele>214</ele>
        <time>2019-11-28T10:31:46.999Z</time>
      </trkpt>
      <trkpt lat="43.82003" lon="4.01001">
        <ele>215</ele>
        <time>2019-11-28T10:32:03.999Z</time>
      </trkpt>
      <trkpt lat="43.82012" lon="4.01025">
        <ele>217</ele>
        <time>2019-11-28T10:32:26.999Z</time>
      </trkpt>
      <trkpt lat="43.82024" lon="4.01045">
        <ele>218</ele>
        <time>2019-11-28T10:32:46.999Z</time>
      </trkpt>
      <trkpt lat="43.8204" lon="4.01056">
        <ele>218</ele>
        <time>2019-11-28T10:33:03.999Z</time>
      </trkpt>
      <trkpt lat="43.82057" lon="4.01065">
        <ele>218</ele>
        <time>2019-11-28T10:33:23.999Z</time>
      </trkpt>
      <trkpt lat="43.82074" lon="4.01075">
        <ele>219</ele>
        <time>2019-11-28T10:33:39.999Z</time>
      </trkpt>
      <trkpt lat="43.82093" lon="4.01073">
        <ele>218</ele>
        <time>2019-11-28T10:34:00.999Z</time>
      </trkpt>
      <trkpt lat="43.82112" lon="4.01075">
        <ele>217</ele>
        <time>2019-11-28T10:34:21.999Z</time>
      </trkpt>
      <trkpt lat="43.8213" lon="4.01077">
        <ele>216</ele>
        <time>2019-11-28T10:34:39.999Z</time>
      </trkpt>
      <trkpt lat="43.82148" lon="4.0108">
        <ele>216</ele>
        <time>2019-11-28T10:34:57.999Z</time>
      </trkpt>
      <trkpt lat="43.82166" lon="4.01084">
        <ele>217</ele>
        <time>2019-11-28T10:35:14.999Z</time>
      </trkpt>
      <trkpt lat="43.82184" lon="4.0109">
        <ele>215</ele>
        <time>2019-11-28T10:35:30.999Z</time>
      </trkpt>
      <trkpt lat="43.82201" lon="4.01101">
        <ele>214</ele>
        <time>2019-11-28T10:35:45.999Z</time>
      </trkpt>
      <trkpt lat="43.82218" lon="4.01114">
        <ele>213</ele>
        <time>2019-11-28T10:36:03.999Z</time>
      </trkpt>
      <trkpt lat="43.8221" lon="4.01138">
        <ele>214</ele>
        <time>2019-11-28T10:36:35.999Z</time>
      </trkpt>
      <trkpt lat="43.82206" lon="4.01162">
        <ele>215</ele>
        <time>2019-11-28T10:37:00.999Z</time>
      </trkpt>
      <trkpt lat="43.82189" lon="4.01171">
        <ele>219</ele>
        <time>2019-11-28T10:37:24.999Z</time>
      </trkpt>
      <trkpt lat="43.82171" lon="4.01176">
        <ele>220</ele>
        <time>2019-11-28T10:37:42.999Z</time>
      </trkpt>
      <trkpt lat="43.82152" lon="4.0118">
        <ele>223</ele>
        <time>2019-11-28T10:38:03.999Z</time>
      </trkpt>
      <trkpt lat="43.82134" lon="4.01188">
        <ele>224</ele>
        <time>2019-11-28T10:38:23.999Z</time>
      </trkpt>
      <trkpt lat="43.82117" lon="4.01192">
        <ele>224</ele>
        <time>2019-11-28T10:38:42.999Z</time>
      </trkpt>
      <trkpt lat="43.82099" lon="4.01201">
        <ele>224</ele>
        <time>2019-11-28T10:39:09.999Z</time>
      </trkpt>
      <trkpt lat="43.82081" lon="4.01209">
        <ele>226</ele>
        <time>2019-11-28T10:39:35.999Z</time>
      </trkpt>
      <trkpt lat="43.82064" lon="4.01217">
        <ele>226</ele>
        <time>2019-11-28T10:39:57.999Z</time>
      </trkpt>
      <trkpt lat="43.82047" lon="4.01223">
        <ele>227</ele>
        <time>2019-11-28T10:40:16.999Z</time>
      </trkpt>
      <trkpt lat="43.82028" lon="4.01227">
        <ele>227</ele>
        <time>2019-11-28T10:40:41.999Z</time>
      </trkpt>
      <trkpt lat="43.82009" lon="4.01231">
        <ele>227</ele>
        <time>2019-11-28T10:40:56.999Z</time>
      </trkpt>
      <trkpt lat="43.81997" lon="4.01252">
        <ele>229</ele>
        <time>2019-11-28T10:41:16.999Z</time>
      </trkpt>
      <trkpt lat="43.81983" lon="4.01268">
        <ele>230</ele>
        <time>2019-11-28T10:41:33.999Z</time>
      </trkpt>
      <trkpt lat="43.81968" lon="4.01283">
        <ele>230</ele>
        <time>2019-11-28T10:41:52.999Z</time>
      </trkpt>
      <trkpt lat="43.81957" lon="4.01303">
        <ele>230</ele>
        <time>2019-11-28T10:42:15.999Z</time>
      </trkpt>
      <trkpt lat="43.81939" lon="4.01304">
        <ele>230</ele>
        <time>2019-11-28T10:42:47.999Z</time>
      </trkpt>
      <trkpt lat="43.8192" lon="4.01303">
        <ele>230</ele>
        <time>2019-11-28T10:43:08.999Z</time>
      </trkpt>
      <trkpt lat="43.81903" lon="4.01309">
        <ele>229</ele>
        <time>2019-11-28T10:43:27.999Z</time>
      </trkpt>
      <trkpt lat="43.81887" lon="4.01321">
        <ele>228</ele>
        <time>2019-11-28T10:43:50.999Z</time>
      </trkpt>
      <trkpt lat="43.81873" lon="4.01337">
        <ele>222</ele>
        <time>2019-11-28T10:44:10.999Z</time>
      </trkpt>
      <trkpt lat="43.81857" lon="4.01324">
        <ele>226</ele>
        <time>2019-11-28T10:44:45.999Z</time>
      </trkpt>
      <trkpt lat="43.81844" lon="4.01307">
        <ele>226</ele>
        <time>2019-11-28T10:46:12.999Z</time>
      </trkpt>
      <trkpt lat="43.81838" lon="4.01283">
        <ele>229</ele>
        <time>2019-11-28T10:48:06.999Z</time>
      </trkpt>
      <trkpt lat="43.81823" lon="4.01269">
        <ele>226</ele>
        <time>2019-11-28T10:51:27.999Z</time>
      </trkpt>
      <trkpt lat="43.81832" lon="4.01248">
        <ele>234</ele>
        <time>2019-11-28T10:54:38.999Z</time>
      </trkpt>
      <trkpt lat="43.81829" lon="4.01223">
        <ele>233</ele>
        <time>2019-11-28T10:58:23.999Z</time>
      </trkpt>
      <trkpt lat="43.81818" lon="4.01203">
        <ele>232</ele>
        <time>2019-11-28T11:01:27.999Z</time>
      </trkpt>
      <trkpt lat="43.81801" lon="4.01197">
        <ele>232</ele>
        <time>2019-11-28T11:02:34.999Z</time>
      </trkpt>
      <trkpt lat="43.81798" lon="4.01222">
        <ele>232</ele>
        <time>2019-11-28T11:06:22.999Z</time>
      </trkpt>
      <trkpt lat="43.81782" lon="4.01233">
        <ele>232</ele>
        <time>2019-11-28T11:08:44.999Z</time>
      </trkpt>
      <trkpt lat="43.81767" lon="4.01249">
        <ele>230</ele>
        <time>2019-11-28T11:09:26.999Z</time>
      </trkpt>
      <trkpt lat="43.81751" lon="4.01238">
        <ele>230</ele>
        <time>2019-11-28T11:13:03.999Z</time>
      </trkpt>
      <trkpt lat="43.81738" lon="4.01219">
        <ele>228</ele>
        <time>2019-11-28T11:13:26.999Z</time>
      </trkpt>
      <trkpt lat="43.81723" lon="4.01206">
        <ele>228</ele>
        <time>2019-11-28T11:13:47.999Z</time>
      </trkpt>
      <trkpt lat="43.81707" lon="4.01193">
        <ele>229</ele>
        <time>2019-11-28T11:14:07.999Z</time>
      </trkpt>
      <trkpt lat="43.81689" lon="4.0119">
        <ele>228</ele>
        <time>2019-11-28T11:14:34.999Z</time>
      </trkpt>
      <trkpt lat="43.81673" lon="4.01176">
        <ele>230</ele>
        <time>2019-11-28T11:14:52.999Z</time>
      </trkpt>
      <trkpt lat="43.81657" lon="4.01163">
        <ele>230</ele>
        <time>2019-11-28T11:15:13.999Z</time>
      </trkpt>
      <trkpt lat="43.81644" lon="4.01145">
        <ele>229</ele>
        <time>2019-11-28T11:15:35.999Z</time>
      </trkpt>
      <trkpt lat="43.81626" lon="4.01142">
        <ele>227</ele>
        <time>2019-11-28T11:15:59.999Z</time>
      </trkpt>
      <trkpt lat="43.81617" lon="4.0114">
        <ele>226</ele>
        <time>2019-11-28T12:03:56.665Z</time>
      </trkpt>
      <trkpt lat="43.81619" lon="4.01115">
        <ele>228</ele>
        <time>2019-11-28T12:13:34.000Z</time>
      </trkpt>
      <trkpt lat="43.81605" lon="4.011">
        <ele>228</ele>
        <time>2019-11-28T12:13:52.000Z</time>
      </trkpt>
      <trkpt lat="43.81592" lon="4.01081">
        <ele>229</ele>
        <time>2019-11-28T12:14:09.000Z</time>
      </trkpt>
      <trkpt lat="43.81582" lon="4.0106">
        <ele>227</ele>
        <time>2019-11-28T12:14:26.000Z</time>
      </trkpt>
      <trkpt lat="43.81577" lon="4.01034">
        <ele>227</ele>
        <time>2019-11-28T12:14:44.000Z</time>
      </trkpt>
      <trkpt lat="43.81577" lon="4.01008">
        <ele>228</ele>
        <time>2019-11-28T12:14:58.000Z</time>
      </trkpt>
      <trkpt lat="43.81584" lon="4.00985">
        <ele>229</ele>
        <time>2019-11-28T12:15:14.000Z</time>
      </trkpt>
      <trkpt lat="43.81567" lon="4.00978">
        <ele>230</ele>
        <time>2019-11-28T12:15:30.000Z</time>
      </trkpt>
      <trkpt lat="43.81549" lon="4.00974">
        <ele>230</ele>
        <time>2019-11-28T12:15:46.000Z</time>
      </trkpt>
      <trkpt lat="43.81532" lon="4.00981">
        <ele>230</ele>
        <time>2019-11-28T12:16:05.000Z</time>
      </trkpt>
      <trkpt lat="43.81513" lon="4.00986">
        <ele>229</ele>
        <time>2019-11-28T12:16:25.000Z</time>
      </trkpt>
      <trkpt lat="43.81495" lon="4.00984">
        <ele>227</ele>
        <time>2019-11-28T12:16:41.000Z</time>
      </trkpt>
      <trkpt lat="43.81488" lon="4.00961">
        <ele>228</ele>
        <time>2019-11-28T12:17:02.000Z</time>
      </trkpt>
      <trkpt lat="43.81479" lon="4.00938">
        <ele>230</ele>
        <time>2019-11-28T12:17:25.000Z</time>
      </trkpt>
      <trkpt lat="43.81468" lon="4.00916">
        <ele>235</ele>
        <time>2019-11-28T12:17:43.000Z</time>
      </trkpt>
      <trkpt lat="43.8146" lon="4.00893">
        <ele>235</ele>
        <time>2019-11-28T12:17:59.000Z</time>
      </trkpt>
      <trkpt lat="43.81444" lon="4.00881">
        <ele>235</ele>
        <time>2019-11-28T12:18:15.000Z</time>
      </trkpt>
      <trkpt lat="43.81426" lon="4.00872">
        <ele>235</ele>
        <time>2019-11-28T12:18:31.000Z</time>
      </trkpt>
      <trkpt lat="43.8141" lon="4.00858">
        <ele>232</ele>
        <time>2019-11-28T12:18:48.000Z</time>
      </trkpt>
      <trkpt lat="43.81393" lon="4.00851">
        <ele>231</ele>
        <time>2019-11-28T12:19:03.000Z</time>
      </trkpt>
      <trkpt lat="43.81376" lon="4.00839">
        <ele>230</ele>
        <time>2019-11-28T12:19:20.000Z</time>
      </trkpt>
      <trkpt lat="43.81374" lon="4.00813">
        <ele>233</ele>
        <time>2019-11-28T12:19:39.000Z</time>
      </trkpt>
      <trkpt lat="43.81382" lon="4.0079">
        <ele>233</ele>
        <time>2019-11-28T12:19:55.000Z</time>
      </trkpt>
      <trkpt lat="43.81397" lon="4.00775">
        <ele>233</ele>
        <time>2019-11-28T12:20:11.000Z</time>
      </trkpt>
      <trkpt lat="43.81414" lon="4.00765">
        <ele>233</ele>
        <time>2019-11-28T12:20:26.000Z</time>
      </trkpt>
      <trkpt lat="43.81413" lon="4.0074">
        <ele>232</ele>
        <time>2019-11-28T12:20:52.000Z</time>
      </trkpt>
      <trkpt lat="43.81402" lon="4.0072">
        <ele>233</ele>
        <time>2019-11-28T12:21:11.000Z</time>
      </trkpt>
      <trkpt lat="43.8139" lon="4.00699">
        <ele>233</ele>
        <time>2019-11-28T12:21:28.000Z</time>
      </trkpt>
      <trkpt lat="43.81372" lon="4.00692">
        <ele>233</ele>
        <time>2019-11-28T12:21:45.000Z</time>
      </trkpt>
      <trkpt lat="43.81359" lon="4.00674">
        <ele>233</ele>
        <time>2019-11-28T12:22:05.000Z</time>
      </trkpt>
      <trkpt lat="43.81354" lon="4.00649">
        <ele>232</ele>
        <time>2019-11-28T12:22:22.000Z</time>
      </trkpt>
      <trkpt lat="43.81353" lon="4.00624">
        <ele>230</ele>
        <time>2019-11-28T12:22:36.000Z</time>
      </trkpt>
      <trkpt lat="43.81356" lon="4.00599">
        <ele>229</ele>
        <time>2019-11-28T12:22:54.000Z</time>
      </trkpt>
      <trkpt lat="43.81357" lon="4.00573">
        <ele>223</ele>
        <time>2019-11-28T12:23:11.000Z</time>
      </trkpt>
      <trkpt lat="43.81368" lon="4.00553">
        <ele>221</ele>
        <time>2019-11-28T12:23:31.000Z</time>
      </trkpt>
      <trkpt lat="43.8138" lon="4.00534">
        <ele>220</ele>
        <time>2019-11-28T12:23:50.000Z</time>
      </trkpt>
      <trkpt lat="43.81394" lon="4.00517">
        <ele>219</ele>
        <time>2019-11-28T12:24:07.000Z</time>
      </trkpt>
      <trkpt lat="43.81405" lon="4.00496">
        <ele>213</ele>
        <time>2019-11-28T12:24:31.000Z</time>
      </trkpt>
      <trkpt lat="43.81403" lon="4.00469">
        <ele>209</ele>
        <time>2019-11-28T12:24:59.000Z</time>
      </trkpt>
      <trkpt lat="43.81399" lon="4.00445">
        <ele>206</ele>
        <time>2019-11-28T12:25:41.000Z</time>
      </trkpt>
      <trkpt lat="43.81382" lon="4.00433">
        <ele>205</ele>
        <time>2019-11-28T12:26:07.000Z</time>
      </trkpt>
      <trkpt lat="43.81364" lon="4.00428">
        <ele>203</ele>
        <time>2019-11-28T12:26:19.000Z</time>
      </trkpt>
      <trkpt lat="43.81346" lon="4.00425">
        <ele>201</ele>
        <time>2019-11-28T12:26:35.000Z</time>
      </trkpt>
      <trkpt lat="43.81328" lon="4.00426">
        <ele>196</ele>
        <time>2019-11-28T12:26:53.000Z</time>
      </trkpt>
      <trkpt lat="43.81309" lon="4.00427">
        <ele>196</ele>
        <time>2019-11-28T12:27:10.000Z</time>
      </trkpt>
      <trkpt lat="43.81291" lon="4.00429">
        <ele>195</ele>
        <time>2019-11-28T12:27:26.000Z</time>
      </trkpt>
      <trkpt lat="43.81272" lon="4.00434">
        <ele>193</ele>
        <time>2019-11-28T12:27:41.000Z</time>
      </trkpt>
      <trkpt lat="43.81254" lon="4.00436">
        <ele>192</ele>
        <time>2019-11-28T12:27:56.000Z</time>
      </trkpt>
      <trkpt lat="43.81236" lon="4.00438">
        <ele>184</ele>
        <time>2019-11-28T12:28:10.000Z</time>
      </trkpt>
      <trkpt lat="43.81218" lon="4.00446">
        <ele>183</ele>
        <time>2019-11-28T12:28:24.000Z</time>
      </trkpt>
      <trkpt lat="43.81201" lon="4.00456">
        <ele>182</ele>
        <time>2019-11-28T12:28:40.000Z</time>
      </trkpt>
      <trkpt lat="43.812" lon="4.0043">
        <ele>180</ele>
        <time>2019-11-28T12:29:08.000Z</time>
      </trkpt>
      <trkpt lat="43.81213" lon="4.00411">
        <ele>176</ele>
        <time>2019-11-28T12:29:23.000Z</time>
      </trkpt>
      <trkpt lat="43.81225" lon="4.00392">
        <ele>177</ele>
        <time>2019-11-28T12:29:38.000Z</time>
      </trkpt>
      <trkpt lat="43.8124" lon="4.00377">
        <ele>177</ele>
        <time>2019-11-28T12:29:52.000Z</time>
      </trkpt>
      <trkpt lat="43.81254" lon="4.00359">
        <ele>183</ele>
        <time>2019-11-28T12:30:09.000Z</time>
      </trkpt>
      <trkpt lat="43.81253" lon="4.00334">
        <ele>178</ele>
        <time>2019-11-28T12:30:26.000Z</time>
      </trkpt>
      <trkpt lat="43.81244" lon="4.00312">
        <ele>173</ele>
        <time>2019-11-28T12:30:40.000Z</time>
      </trkpt>
      <trkpt lat="43.81244" lon="4.00285">
        <ele>172</ele>
        <time>2019-11-28T12:30:54.000Z</time>
      </trkpt>
      <trkpt lat="43.81251" lon="4.00263">
        <ele>176</ele>
        <time>2019-11-28T12:31:09.000Z</time>
      </trkpt>
      <trkpt lat="43.81266" lon="4.00246">
        <ele>174</ele>
        <time>2019-11-28T12:31:26.000Z</time>
      </trkpt>
      <trkpt lat="43.81281" lon="4.0023">
        <ele>174</ele>
        <time>2019-11-28T12:31:42.000Z</time>
      </trkpt>
      <trkpt lat="43.81296" lon="4.00214">
        <ele>174</ele>
        <time>2019-11-28T12:31:58.000Z</time>
      </trkpt>
      <trkpt lat="43.81311" lon="4.00201">
        <ele>174</ele>
        <time>2019-11-28T12:32:12.000Z</time>
      </trkpt>
      <trkpt lat="43.81327" lon="4.00186">
        <ele>173</ele>
        <time>2019-11-28T12:32:26.000Z</time>
      </trkpt>
      <trkpt lat="43.81342" lon="4.00171">
        <ele>173</ele>
        <time>2019-11-28T12:32:40.000Z</time>
      </trkpt>
      <trkpt lat="43.81359" lon="4.00159">
        <ele>172</ele>
        <time>2019-11-28T12:32:54.000Z</time>
      </trkpt>
      <trkpt lat="43.81377" lon="4.00151">
        <ele>172</ele>
        <time>2019-11-28T12:33:06.000Z</time>
      </trkpt>
      <trkpt lat="43.81392" lon="4.00138">
        <ele>172</ele>
        <time>2019-11-28T12:33:20.000Z</time>
      </trkpt>
      <trkpt lat="43.81402" lon="4.00117">
        <ele>171</ele>
        <time>2019-11-28T12:33:35.000Z</time>
      </trkpt>
      <trkpt lat="43.81402" lon="4.00091">
        <ele>171</ele>
        <time>2019-11-28T12:33:54.000Z</time>
      </trkpt>
      <trkpt lat="43.8139" lon="4.00071">
        <ele>171</ele>
        <time>2019-11-28T12:34:11.000Z</time>
      </trkpt>
      <trkpt lat="43.81377" lon="4.00053">
        <ele>171</ele>
        <time>2019-11-28T12:34:28.000Z</time>
      </trkpt>
      <trkpt lat="43.81358" lon="4.00052">
        <ele>171</ele>
        <time>2019-11-28T12:34:41.000Z</time>
      </trkpt>
      <trkpt lat="43.81339" lon="4.00056">
        <ele>171</ele>
        <time>2019-11-28T12:34:57.000Z</time>
      </trkpt>
      <trkpt lat="43.81321" lon="4.00058">
        <ele>170</ele>
        <time>2019-11-28T12:35:12.000Z</time>
      </trkpt>
      <trkpt lat="43.81303" lon="4.0006">
        <ele>170</ele>
        <time>2019-11-28T12:35:28.000Z</time>
      </trkpt>
      <trkpt lat="43.81285" lon="4.00054">
        <ele>170</ele>
        <time>2019-11-28T12:35:44.000Z</time>
      </trkpt>
      <trkpt lat="43.81267" lon="4.00046">
        <ele>170</ele>
        <time>2019-11-28T12:36:00.000Z</time>
      </trkpt>
      <trkpt lat="43.81249" lon="4.00038">
        <ele>172</ele>
        <time>2019-11-28T12:36:17.000Z</time>
      </trkpt>
      <trkpt lat="43.81231" lon="4.00031">
        <ele>172</ele>
        <time>2019-11-28T12:36:52.000Z</time>
      </trkpt>
      <trkpt lat="43.8122" lon="4.00052">
        <ele>172</ele>
        <time>2019-11-28T12:37:06.000Z</time>
      </trkpt>
      <trkpt lat="43.81211" lon="4.00073">
        <ele>171</ele>
        <time>2019-11-28T12:37:21.000Z</time>
      </trkpt>
      <trkpt lat="43.812" lon="4.00095">
        <ele>170</ele>
        <time>2019-11-28T12:37:34.000Z</time>
      </trkpt>
      <trkpt lat="43.81189" lon="4.00115">
        <ele>170</ele>
        <time>2019-11-28T12:37:48.000Z</time>
      </trkpt>
      <trkpt lat="43.81176" lon="4.00133">
        <ele>169</ele>
        <time>2019-11-28T12:38:05.000Z</time>
      </trkpt>
      <trkpt lat="43.81162" lon="4.0015">
        <ele>171</ele>
        <time>2019-11-28T12:38:20.000Z</time>
      </trkpt>
      <trkpt lat="43.81152" lon="4.00171">
        <ele>170</ele>
        <time>2019-11-28T12:38:35.000Z</time>
      </trkpt>
      <trkpt lat="43.81147" lon="4.00196">
        <ele>171</ele>
        <time>2019-11-28T12:38:50.000Z</time>
      </trkpt>
      <trkpt lat="43.81137" lon="4.00218">
        <ele>171</ele>
        <time>2019-11-28T12:39:06.000Z</time>
      </trkpt>
      <trkpt lat="43.81123" lon="4.00234">
        <ele>172</ele>
        <time>2019-11-28T12:39:23.000Z</time>
      </trkpt>
      <trkpt lat="43.8111" lon="4.00254">
        <ele>172</ele>
        <time>2019-11-28T12:39:40.000Z</time>
      </trkpt>
      <trkpt lat="43.81102" lon="4.00277">
        <ele>172</ele>
        <time>2019-11-28T12:39:57.000Z</time>
      </trkpt>
      <trkpt lat="43.81093" lon="4.003">
        <ele>171</ele>
        <time>2019-11-28T12:40:17.000Z</time>
      </trkpt>
      <trkpt lat="43.81083" lon="4.00321">
        <ele>175</ele>
        <time>2019-11-28T12:40:33.000Z</time>
      </trkpt>
      <trkpt lat="43.81071" lon="4.00341">
        <ele>171</ele>
        <time>2019-11-28T12:40:49.000Z</time>
      </trkpt>
      <trkpt lat="43.81057" lon="4.00359">
        <ele>171</ele>
        <time>2019-11-28T12:41:05.000Z</time>
      </trkpt>
      <trkpt lat="43.81041" lon="4.00374">
        <ele>171</ele>
        <time>2019-11-28T12:41:20.000Z</time>
      </trkpt>
      <trkpt lat="43.81027" lon="4.0039">
        <ele>171</ele>
        <time>2019-11-28T12:41:34.000Z</time>
      </trkpt>
      <trkpt lat="43.81011" lon="4.00404">
        <ele>170</ele>
        <time>2019-11-28T12:41:48.000Z</time>
      </trkpt>
      <trkpt lat="43.80993" lon="4.00413">
        <ele>172</ele>
        <time>2019-11-28T12:42:03.000Z</time>
      </trkpt>
      <trkpt lat="43.80979" lon="4.00428">
        <ele>168</ele>
        <time>2019-11-28T12:42:22.000Z</time>
      </trkpt>
      <trkpt lat="43.80972" lon="4.00452">
        <ele>167</ele>
        <time>2019-11-28T12:43:49.000Z</time>
      </trkpt>
      <trkpt lat="43.80964" lon="4.00474">
        <ele>166</ele>
        <time>2019-11-28T12:44:32.000Z</time>
      </trkpt>
      <trkpt lat="43.80949" lon="4.00491">
        <ele>166</ele>
        <time>2019-11-28T12:44:50.000Z</time>
      </trkpt>
      <trkpt lat="43.80935" lon="4.00507">
        <ele>161</ele>
        <time>2019-11-28T12:45:07.000Z</time>
      </trkpt>
      <trkpt lat="43.80918" lon="4.00519">
        <ele>161</ele>
        <time>2019-11-28T12:45:20.000Z</time>
      </trkpt>
      <trkpt lat="43.809" lon="4.00525">
        <ele>162</ele>
        <time>2019-11-28T12:45:35.000Z</time>
      </trkpt>
      <trkpt lat="43.80882" lon="4.00532">
        <ele>162</ele>
        <time>2019-11-28T12:45:48.000Z</time>
      </trkpt>
      <trkpt lat="43.80866" lon="4.00545">
        <ele>162</ele>
        <time>2019-11-28T12:46:05.000Z</time>
      </trkpt>
      <trkpt lat="43.80876" lon="4.00567">
        <ele>160</ele>
        <time>2019-11-28T12:46:23.000Z</time>
      </trkpt>
      <trkpt lat="43.80881" lon="4.00593">
        <ele>155</ele>
        <time>2019-11-28T12:46:38.000Z</time>
      </trkpt>
      <trkpt lat="43.80876" lon="4.00568">
        <ele>160</ele>
        <time>2019-11-28T12:47:11.000Z</time>
      </trkpt>
      <trkpt lat="43.80861" lon="4.00553">
        <ele>162</ele>
        <time>2019-11-28T12:47:30.000Z</time>
      </trkpt>
      <trkpt lat="43.80843" lon="4.00544">
        <ele>162</ele>
        <time>2019-11-28T12:48:02.000Z</time>
      </trkpt>
      <trkpt lat="43.80831" lon="4.00525">
        <ele>165</ele>
        <time>2019-11-28T12:48:31.000Z</time>
      </trkpt>
      <trkpt lat="43.80818" lon="4.00506">
        <ele>165</ele>
        <time>2019-11-28T12:48:50.000Z</time>
      </trkpt>
      <trkpt lat="43.80806" lon="4.00487">
        <ele>170</ele>
        <time>2019-11-28T12:49:10.000Z</time>
      </trkpt>
      <trkpt lat="43.80791" lon="4.00473">
        <ele>171</ele>
        <time>2019-11-28T12:49:31.000Z</time>
      </trkpt>
      <trkpt lat="43.80775" lon="4.0046">
        <ele>172</ele>
        <time>2019-11-28T12:49:49.000Z</time>
      </trkpt>
      <trkpt lat="43.80763" lon="4.00442">
        <ele>173</ele>
        <time>2019-11-28T12:50:08.000Z</time>
      </trkpt>
      <trkpt lat="43.8076" lon="4.00416">
        <ele>178</ele>
        <time>2019-11-28T12:50:25.000Z</time>
      </trkpt>
      <trkpt lat="43.80751" lon="4.00393">
        <ele>180</ele>
        <time>2019-11-28T12:50:46.000Z</time>
      </trkpt>
      <trkpt lat="43.80747" lon="4.00368">
        <ele>179</ele>
        <time>2019-11-28T12:51:04.000Z</time>
      </trkpt>
      <trkpt lat="43.80739" lon="4.00345">
        <ele>182</ele>
        <time>2019-11-28T12:51:24.000Z</time>
      </trkpt>
      <trkpt lat="43.80727" lon="4.00325">
        <ele>188</ele>
        <time>2019-11-28T12:51:44.000Z</time>
      </trkpt>
      <trkpt lat="43.80715" lon="4.00306">
        <ele>189</ele>
        <time>2019-11-28T12:52:03.000Z</time>
      </trkpt>
      <trkpt lat="43.80699" lon="4.00294">
        <ele>189</ele>
        <time>2019-11-28T12:52:21.000Z</time>
      </trkpt>
      <trkpt lat="43.80689" lon="4.00273">
        <ele>191</ele>
        <time>2019-11-28T12:52:45.000Z</time>
      </trkpt>
      <trkpt lat="43.80676" lon="4.00256">
        <ele>192</ele>
        <time>2019-11-28T12:53:01.000Z</time>
      </trkpt>
      <trkpt lat="43.80661" lon="4.00239">
        <ele>197</ele>
        <time>2019-11-28T12:53:18.000Z</time>
      </trkpt>
      <trkpt lat="43.80645" lon="4.00229">
        <ele>201</ele>
        <time>2019-11-28T12:53:40.000Z</time>
      </trkpt>
      <trkpt lat="43.80627" lon="4.0022">
        <ele>203</ele>
        <time>2019-11-28T12:53:58.000Z</time>
      </trkpt>
      <trkpt lat="43.80609" lon="4.00219">
        <ele>204</ele>
        <time>2019-11-28T12:54:19.000Z</time>
      </trkpt>
      <trkpt lat="43.8059" lon="4.00221">
        <ele>204</ele>
        <time>2019-11-28T12:54:42.000Z</time>
      </trkpt>
      <trkpt lat="43.80572" lon="4.0022">
        <ele>206</ele>
        <time>2019-11-28T12:55:08.000Z</time>
      </trkpt>
      <trkpt lat="43.80553" lon="4.00218">
        <ele>206</ele>
        <time>2019-11-28T12:55:47.000Z</time>
      </trkpt>
      <trkpt lat="43.80565" lon="4.00197">
        <ele>208</ele>
        <time>2019-11-28T12:56:13.000Z</time>
      </trkpt>
      <trkpt lat="43.80578" lon="4.0018">
        <ele>210</ele>
        <time>2019-11-28T12:56:33.000Z</time>
      </trkpt>
      <trkpt lat="43.80591" lon="4.00162">
        <ele>214</ele>
        <time>2019-11-28T12:56:52.000Z</time>
      </trkpt>
      <trkpt lat="43.80597" lon="4.00138">
        <ele>215</ele>
        <time>2019-11-28T12:57:12.000Z</time>
      </trkpt>
      <trkpt lat="43.80587" lon="4.00116">
        <ele>216</ele>
        <time>2019-11-28T12:57:29.000Z</time>
      </trkpt>
      <trkpt lat="43.80586" lon="4.0009">
        <ele>218</ele>
        <time>2019-11-28T12:57:48.000Z</time>
      </trkpt>
      <trkpt lat="43.80577" lon="4.00067">
        <ele>218</ele>
        <time>2019-11-28T12:58:05.000Z</time>
      </trkpt>
      <trkpt lat="43.80572" lon="4.00041">
        <ele>218</ele>
        <time>2019-11-28T12:58:22.000Z</time>
      </trkpt>
      <trkpt lat="43.80563" lon="4.00018">
        <ele>219</ele>
        <time>2019-11-28T12:58:39.000Z</time>
      </trkpt>
      <trkpt lat="43.80551" lon="3.99999">
        <ele>220</ele>
        <time>2019-11-28T12:58:54.000Z</time>
      </trkpt>
      <trkpt lat="43.80543" lon="3.99976">
        <ele>220</ele>
        <time>2019-11-28T12:59:10.000Z</time>
      </trkpt>
      <trkpt lat="43.80535" lon="3.99951">
        <ele>220</ele>
        <time>2019-11-28T12:59:28.000Z</time>
      </trkpt>
      <trkpt lat="43.80519" lon="3.99939">
        <ele>220</ele>
        <time>2019-11-28T13:00:26.000Z</time>
      </trkpt>
      <trkpt lat="43.80517" lon="3.99913">
        <ele>220</ele>
        <time>2019-11-28T13:00:56.000Z</time>
      </trkpt>
      <trkpt lat="43.80508" lon="3.9989">
        <ele>220</ele>
        <time>2019-11-28T13:01:12.000Z</time>
      </trkpt>
      <trkpt lat="43.80503" lon="3.99865">
        <ele>220</ele>
        <time>2019-11-28T13:01:28.000Z</time>
      </trkpt>
      <trkpt lat="43.80501" lon="3.9984">
        <ele>221</ele>
        <time>2019-11-28T13:01:44.000Z</time>
      </trkpt>
      <trkpt lat="43.80491" lon="3.99819">
        <ele>218</ele>
        <time>2019-11-28T13:02:03.000Z</time>
      </trkpt>
      <trkpt lat="43.80474" lon="3.99808">
        <ele>217</ele>
        <time>2019-11-28T13:02:23.000Z</time>
      </trkpt>
      <trkpt lat="43.80455" lon="3.99805">
        <ele>216</ele>
        <time>2019-11-28T13:02:38.000Z</time>
      </trkpt>
      <trkpt lat="43.80437" lon="3.99809">
        <ele>216</ele>
        <time>2019-11-28T13:02:52.000Z</time>
      </trkpt>
      <trkpt lat="43.80418" lon="3.99813">
        <ele>216</ele>
        <time>2019-11-28T13:03:05.000Z</time>
      </trkpt>
      <trkpt lat="43.804" lon="3.99816">
        <ele>214</ele>
        <time>2019-11-28T13:03:20.000Z</time>
      </trkpt>
      <trkpt lat="43.80381" lon="3.99811">
        <ele>213</ele>
        <time>2019-11-28T13:03:35.000Z</time>
      </trkpt>
      <trkpt lat="43.80364" lon="3.99802">
        <ele>213</ele>
        <time>2019-11-28T13:03:50.000Z</time>
      </trkpt>
      <trkpt lat="43.80346" lon="3.99795">
        <ele>213</ele>
        <time>2019-11-28T13:04:04.000Z</time>
      </trkpt>
      <trkpt lat="43.80327" lon="3.99797">
        <ele>213</ele>
        <time>2019-11-28T13:04:18.000Z</time>
      </trkpt>
      <trkpt lat="43.80308" lon="3.99802">
        <ele>213</ele>
        <time>2019-11-28T13:04:34.000Z</time>
      </trkpt>
      <trkpt lat="43.80292" lon="3.99816">
        <ele>213</ele>
        <time>2019-11-28T13:05:36.000Z</time>
      </trkpt>
      <trkpt lat="43.80273" lon="3.99823">
        <ele>213</ele>
        <time>2019-11-28T13:05:51.000Z</time>
      </trkpt>
      <trkpt lat="43.80256" lon="3.99816">
        <ele>213</ele>
        <time>2019-11-28T13:06:08.000Z</time>
      </trkpt>
      <trkpt lat="43.80243" lon="3.99796">
        <ele>213</ele>
        <time>2019-11-28T13:06:27.000Z</time>
      </trkpt>
      <trkpt lat="43.8025" lon="3.99773">
        <ele>213</ele>
        <time>2019-11-28T13:06:50.000Z</time>
      </trkpt>
      <trkpt lat="43.80242" lon="3.99749">
        <ele>211</ele>
        <time>2019-11-28T13:07:15.000Z</time>
      </trkpt>
      <trkpt lat="43.80238" lon="3.99724">
        <ele>210</ele>
        <time>2019-11-28T13:07:35.000Z</time>
      </trkpt>
      <trkpt lat="43.80236" lon="3.99698">
        <ele>209</ele>
        <time>2019-11-28T13:07:53.000Z</time>
      </trkpt>
      <trkpt lat="43.80229" lon="3.99674">
        <ele>207</ele>
        <time>2019-11-28T13:08:12.000Z</time>
      </trkpt>
      <trkpt lat="43.80222" lon="3.99651">
        <ele>202</ele>
        <time>2019-11-28T13:08:29.000Z</time>
      </trkpt>
      <trkpt lat="43.80216" lon="3.99626">
        <ele>201</ele>
        <time>2019-11-28T13:08:49.000Z</time>
      </trkpt>
      <trkpt lat="43.80207" lon="3.99604">
        <ele>200</ele>
        <time>2019-11-28T13:09:12.000Z</time>
      </trkpt>
      <trkpt lat="43.80201" lon="3.9958">
        <ele>192</ele>
        <time>2019-11-28T13:09:35.000Z</time>
      </trkpt>
      <trkpt lat="43.8021" lon="3.99603">
        <ele>200</ele>
        <time>2019-11-28T13:12:15.999Z</time>
      </trkpt>
      <trkpt lat="43.80217" lon="3.99626">
        <ele>201</ele>
        <time>2019-11-28T13:12:34.999Z</time>
      </trkpt>
      <trkpt lat="43.80224" lon="3.99651">
        <ele>202</ele>
        <time>2019-11-28T13:12:52.999Z</time>
      </trkpt>
      <trkpt lat="43.80231" lon="3.99675">
        <ele>207</ele>
        <time>2019-11-28T13:13:11.999Z</time>
      </trkpt>
      <trkpt lat="43.80237" lon="3.997">
        <ele>209</ele>
        <time>2019-11-28T13:13:33.999Z</time>
      </trkpt>
      <trkpt lat="43.8024" lon="3.99725">
        <ele>210</ele>
        <time>2019-11-28T13:13:55.999Z</time>
      </trkpt>
      <trkpt lat="43.80243" lon="3.99751">
        <ele>212</ele>
        <time>2019-11-28T13:14:14.999Z</time>
      </trkpt>
      <trkpt lat="43.80246" lon="3.99776">
        <ele>213</ele>
        <time>2019-11-28T13:14:33.999Z</time>
      </trkpt>
      <trkpt lat="43.80238" lon="3.99799">
        <ele>213</ele>
        <time>2019-11-28T13:14:51.999Z</time>
      </trkpt>
      <trkpt lat="43.80224" lon="3.99817">
        <ele>213</ele>
        <time>2019-11-28T13:15:06.999Z</time>
      </trkpt>
      <trkpt lat="43.80207" lon="3.99809">
        <ele>213</ele>
        <time>2019-11-28T13:15:42.999Z</time>
      </trkpt>
      <trkpt lat="43.80213" lon="3.99784">
        <ele>213</ele>
        <time>2019-11-28T13:16:12.999Z</time>
      </trkpt>
      <trkpt lat="43.80203" lon="3.99762">
        <ele>213</ele>
        <time>2019-11-28T13:16:30.999Z</time>
      </trkpt>
      <trkpt lat="43.80185" lon="3.99755">
        <ele>213</ele>
        <time>2019-11-28T13:16:45.999Z</time>
      </trkpt>
      <trkpt lat="43.80168" lon="3.99748">
        <ele>214</ele>
        <time>2019-11-28T13:16:59.999Z</time>
      </trkpt>
      <trkpt lat="43.80153" lon="3.99734">
        <ele>215</ele>
        <time>2019-11-28T13:17:15.999Z</time>
      </trkpt>
      <trkpt lat="43.80138" lon="3.99719">
        <ele>215</ele>
        <time>2019-11-28T13:17:32.999Z</time>
      </trkpt>
      <trkpt lat="43.80124" lon="3.99702">
        <ele>216</ele>
        <time>2019-11-28T13:17:47.999Z</time>
      </trkpt>
      <trkpt lat="43.80111" lon="3.99683">
        <ele>216</ele>
        <time>2019-11-28T13:18:03.999Z</time>
      </trkpt>
      <trkpt lat="43.80098" lon="3.99666">
        <ele>215</ele>
        <time>2019-11-28T13:18:17.999Z</time>
      </trkpt>
      <trkpt lat="43.80084" lon="3.99649">
        <ele>215</ele>
        <time>2019-11-28T13:18:33.999Z</time>
      </trkpt>
      <trkpt lat="43.80069" lon="3.99633">
        <ele>217</ele>
        <time>2019-11-28T13:18:48.999Z</time>
      </trkpt>
      <trkpt lat="43.80056" lon="3.99615">
        <ele>217</ele>
        <time>2019-11-28T13:19:03.999Z</time>
      </trkpt>
      <trkpt lat="43.80047" lon="3.99592">
        <ele>217</ele>
        <time>2019-11-28T13:19:18.999Z</time>
      </trkpt>
      <trkpt lat="43.80041" lon="3.99568">
        <ele>215</ele>
        <time>2019-11-28T13:19:32.999Z</time>
      </trkpt>
      <trkpt lat="43.80031" lon="3.99547">
        <ele>216</ele>
        <time>2019-11-28T13:19:47.999Z</time>
      </trkpt>
      <trkpt lat="43.80018" lon="3.9953">
        <ele>216</ele>
        <time>2019-11-28T13:20:02.999Z</time>
      </trkpt>
      <trkpt lat="43.80003" lon="3.99514">
        <ele>218</ele>
        <time>2019-11-28T13:20:17.999Z</time>
      </trkpt>
      <trkpt lat="43.79987" lon="3.99501">
        <ele>221</ele>
        <time>2019-11-28T13:20:32.999Z</time>
      </trkpt>
      <trkpt lat="43.79971" lon="3.9949">
        <ele>221</ele>
        <time>2019-11-28T13:20:47.999Z</time>
      </trkpt>
      <trkpt lat="43.79952" lon="3.99486">
        <ele>222</ele>
        <time>2019-11-28T13:21:02.999Z</time>
      </trkpt>
      <trkpt lat="43.79934" lon="3.9948">
        <ele>222</ele>
        <time>2019-11-28T13:21:17.999Z</time>
      </trkpt>
      <trkpt lat="43.79916" lon="3.99483">
        <ele>221</ele>
        <time>2019-11-28T13:21:31.999Z</time>
      </trkpt>
      <trkpt lat="43.799" lon="3.99495">
        <ele>221</ele>
        <time>2019-11-28T13:21:45.999Z</time>
      </trkpt>
      <trkpt lat="43.79884" lon="3.99509">
        <ele>220</ele>
        <time>2019-11-28T13:22:01.999Z</time>
      </trkpt>
      <trkpt lat="43.79868" lon="3.99523">
        <ele>220</ele>
        <time>2019-11-28T13:22:14.999Z</time>
      </trkpt>
      <trkpt lat="43.79856" lon="3.99541">
        <ele>220</ele>
        <time>2019-11-28T13:22:28.999Z</time>
      </trkpt>
      <trkpt lat="43.79838" lon="3.9955">
        <ele>220</ele>
        <time>2019-11-28T13:22:43.999Z</time>
      </trkpt>
      <trkpt lat="43.79819" lon="3.99551">
        <ele>215</ele>
        <time>2019-11-28T13:22:58.999Z</time>
      </trkpt>
      <trkpt lat="43.79801" lon="3.99552">
        <ele>214</ele>
        <time>2019-11-28T13:23:11.999Z</time>
      </trkpt>
      <trkpt lat="43.79783" lon="3.99559">
        <ele>214</ele>
        <time>2019-11-28T13:23:25.999Z</time>
      </trkpt>
      <trkpt lat="43.79765" lon="3.99563">
        <ele>213</ele>
        <time>2019-11-28T13:23:39.999Z</time>
      </trkpt>
      <trkpt lat="43.79746" lon="3.99563">
        <ele>207</ele>
        <time>2019-11-28T13:23:56.999Z</time>
      </trkpt>
      <trkpt lat="43.79733" lon="3.99546">
        <ele>205</ele>
        <time>2019-11-28T13:24:10.999Z</time>
      </trkpt>
      <trkpt lat="43.79718" lon="3.99529">
        <ele>204</ele>
        <time>2019-11-28T13:24:27.999Z</time>
      </trkpt>
      <trkpt lat="43.79705" lon="3.99512">
        <ele>203</ele>
        <time>2019-11-28T13:24:42.999Z</time>
      </trkpt>
      <trkpt lat="43.79686" lon="3.99506">
        <ele>200</ele>
        <time>2019-11-28T13:25:00.999Z</time>
      </trkpt>
      <trkpt lat="43.79669" lon="3.99499">
        <ele>197</ele>
        <time>2019-11-28T13:25:14.999Z</time>
      </trkpt>
      <trkpt lat="43.79656" lon="3.99479">
        <ele>193</ele>
        <time>2019-11-28T13:25:28.999Z</time>
      </trkpt>
      <trkpt lat="43.79646" lon="3.99458">
        <ele>191</ele>
        <time>2019-11-28T13:25:43.999Z</time>
      </trkpt>
      <trkpt lat="43.79638" lon="3.99435">
        <ele>191</ele>
        <time>2019-11-28T13:26:00.999Z</time>
      </trkpt>
      <trkpt lat="43.79628" lon="3.99412">
        <ele>188</ele>
        <time>2019-11-28T13:26:14.999Z</time>
      </trkpt>
      <trkpt lat="43.79618" lon="3.9939">
        <ele>187</ele>
        <time>2019-11-28T13:26:27.999Z</time>
      </trkpt>
      <trkpt lat="43.79607" lon="3.99369">
        <ele>186</ele>
        <time>2019-11-28T13:26:44.999Z</time>
      </trkpt>
      <trkpt lat="43.79598" lon="3.99347">
        <ele>185</ele>
        <time>2019-11-28T13:27:02.999Z</time>
      </trkpt>
      <trkpt lat="43.79588" lon="3.99326">
        <ele>182</ele>
        <time>2019-11-28T13:27:18.999Z</time>
      </trkpt>
      <trkpt lat="43.79578" lon="3.99304">
        <ele>180</ele>
        <time>2019-11-28T13:27:34.999Z</time>
      </trkpt>
      <trkpt lat="43.79572" lon="3.9928">
        <ele>178</ele>
        <time>2019-11-28T13:27:54.999Z</time>
      </trkpt>
      <trkpt lat="43.79581" lon="3.99258">
        <ele>176</ele>
        <time>2019-11-28T13:28:21.999Z</time>
      </trkpt>
      <trkpt lat="43.79583" lon="3.99232">
        <ele>174</ele>
        <time>2019-11-28T13:28:40.999Z</time>
      </trkpt>
      <trkpt lat="43.79588" lon="3.99208">
        <ele>178</ele>
        <time>2019-11-28T13:28:58.999Z</time>
      </trkpt>
      <trkpt lat="43.79594" lon="3.99184">
        <ele>177</ele>
        <time>2019-11-28T13:29:16.999Z</time>
      </trkpt>
      <trkpt lat="43.796" lon="3.99161">
        <ele>177</ele>
        <time>2019-11-28T13:29:36.999Z</time>
      </trkpt>
      <trkpt lat="43.79606" lon="3.99136">
        <ele>178</ele>
        <time>2019-11-28T13:29:54.999Z</time>
      </trkpt>
      <trkpt lat="43.79614" lon="3.99113">
        <ele>179</ele>
        <time>2019-11-28T13:30:12.999Z</time>
      </trkpt>
      <trkpt lat="43.79619" lon="3.99088">
        <ele>180</ele>
        <time>2019-11-28T13:30:59.999Z</time>
      </trkpt>
      <trkpt lat="43.79626" lon="3.99064">
        <ele>181</ele>
        <time>2019-11-28T13:31:18.999Z</time>
      </trkpt>
      <trkpt lat="43.79631" lon="3.99039">
        <ele>182</ele>
        <time>2019-11-28T13:31:35.999Z</time>
      </trkpt>
      <trkpt lat="43.79633" lon="3.99012">
        <ele>182</ele>
        <time>2019-11-28T13:31:57.999Z</time>
      </trkpt>
      <trkpt lat="43.79627" lon="3.98988">
        <ele>181</ele>
        <time>2019-11-28T13:32:15.999Z</time>
      </trkpt>
      <trkpt lat="43.79613" lon="3.98972">
        <ele>179</ele>
        <time>2019-11-28T13:32:31.999Z</time>
      </trkpt>
      <trkpt lat="43.79601" lon="3.98953">
        <ele>178</ele>
        <time>2019-11-28T13:32:51.999Z</time>
      </trkpt>
      <trkpt lat="43.79586" lon="3.98939">
        <ele>176</ele>
        <time>2019-11-28T13:33:12.999Z</time>
      </trkpt>
      <trkpt lat="43.7957" lon="3.98927">
        <ele>169</ele>
        <time>2019-11-28T13:33:29.999Z</time>
      </trkpt>
      <trkpt lat="43.79554" lon="3.98915">
        <ele>171</ele>
        <time>2019-11-28T13:33:51.999Z</time>
      </trkpt>
      <trkpt lat="43.79537" lon="3.98924">
        <ele>165</ele>
        <time>2019-11-28T13:34:09.999Z</time>
      </trkpt>
      <trkpt lat="43.79523" lon="3.98942">
        <ele>164</ele>
        <time>2019-11-28T13:34:27.999Z</time>
      </trkpt>
      <trkpt lat="43.79514" lon="3.98963">
        <ele>163</ele>
        <time>2019-11-28T13:34:50.999Z</time>
      </trkpt>
      <trkpt lat="43.79499" lon="3.98979">
        <ele>154</ele>
        <time>2019-11-28T13:35:22.999Z</time>
      </trkpt>
      <trkpt lat="43.79497" lon="3.98952">
        <ele>155</ele>
        <time>2019-11-28T13:35:54.999Z</time>
      </trkpt>
      <trkpt lat="43.7949" lon="3.98929">
        <ele>158</ele>
        <time>2019-11-28T13:36:48.999Z</time>
      </trkpt>
      <trkpt lat="43.79475" lon="3.98914">
        <ele>163</ele>
        <time>2019-11-28T13:40:21.999Z</time>
      </trkpt>
      <trkpt lat="43.79457" lon="3.98911">
        <ele>162</ele>
        <time>2019-11-28T13:40:40.999Z</time>
      </trkpt>
      <trkpt lat="43.7944" lon="3.98917">
        <ele>154</ele>
        <time>2019-11-28T13:40:56.999Z</time>
      </trkpt>
      <trkpt lat="43.79422" lon="3.98925">
        <ele>153</ele>
        <time>2019-11-28T13:41:17.999Z</time>
      </trkpt>
      <trkpt lat="43.79404" lon="3.98927">
        <ele>153</ele>
        <time>2019-11-28T13:41:33.999Z</time>
      </trkpt>
      <trkpt lat="43.79386" lon="3.98919">
        <ele>154</ele>
        <time>2019-11-28T13:41:52.999Z</time>
      </trkpt>
      <trkpt lat="43.79372" lon="3.98902">
        <ele>160</ele>
        <time>2019-11-28T13:42:09.999Z</time>
      </trkpt>
      <trkpt lat="43.79361" lon="3.98882">
        <ele>160</ele>
        <time>2019-11-28T13:42:36.999Z</time>
      </trkpt>
      <trkpt lat="43.79352" lon="3.9886">
        <ele>161</ele>
        <time>2019-11-28T13:42:59.999Z</time>
      </trkpt>
      <trkpt lat="43.7934" lon="3.98841">
        <ele>160</ele>
        <time>2019-11-28T13:43:20.999Z</time>
      </trkpt>
      <trkpt lat="43.79338" lon="3.98816">
        <ele>165</ele>
        <time>2019-11-28T13:43:38.999Z</time>
      </trkpt>
      <trkpt lat="43.79329" lon="3.98793">
        <ele>172</ele>
        <time>2019-11-28T13:44:02.999Z</time>
      </trkpt>
      <trkpt lat="43.79328" lon="3.98768">
        <ele>171</ele>
        <time>2019-11-28T13:44:22.999Z</time>
      </trkpt>
      <trkpt lat="43.79322" lon="3.98744">
        <ele>172</ele>
        <time>2019-11-28T13:44:50.999Z</time>
      </trkpt>
      <trkpt lat="43.79321" lon="3.98718">
        <ele>176</ele>
        <time>2019-11-28T13:46:01.999Z</time>
      </trkpt>
      <trkpt lat="43.79313" lon="3.98696">
        <ele>178</ele>
        <time>2019-11-28T13:46:30.999Z</time>
      </trkpt>
      <trkpt lat="43.79295" lon="3.98688">
        <ele>179</ele>
        <time>2019-11-28T13:47:20.999Z</time>
      </trkpt>
      <trkpt lat="43.79278" lon="3.98683">
        <ele>181</ele>
        <time>2019-11-28T13:48:12.999Z</time>
      </trkpt>
      <trkpt lat="43.79268" lon="3.98662">
        <ele>184</ele>
        <time>2019-11-28T13:48:39.999Z</time>
      </trkpt>
      <trkpt lat="43.79255" lon="3.98644">
        <ele>184</ele>
        <time>2019-11-28T13:49:33.999Z</time>
      </trkpt>
      <trkpt lat="43.79245" lon="3.98623">
        <ele>191</ele>
        <time>2019-11-28T13:50:03.999Z</time>
      </trkpt>
      <trkpt lat="43.7922" lon="3.986">
        <ele>193</ele>
        <time>2019-11-28T13:50:26.638Z</time>
      </trkpt>
      <trkpt lat="43.79219" lon="3.98575">
        <ele>190</ele>
        <time>2019-11-28T13:50:57.999Z</time>
      </trkpt>
      <trkpt lat="43.79208" lon="3.98556">
        <ele>192</ele>
        <time>2019-11-28T13:51:20.999Z</time>
      </trkpt>
      <trkpt lat="43.79196" lon="3.98537">
        <ele>193</ele>
        <time>2019-11-28T13:51:43.999Z</time>
      </trkpt>
      <trkpt lat="43.79187" lon="3.98515">
        <ele>194</ele>
        <time>2019-11-28T13:52:05.999Z</time>
      </trkpt>
      <trkpt lat="43.79174" lon="3.98496">
        <ele>196</ele>
        <time>2019-11-28T13:52:28.999Z</time>
      </trkpt>
      <trkpt lat="43.79159" lon="3.98482">
        <ele>201</ele>
        <time>2019-11-28T13:52:48.999Z</time>
      </trkpt>
      <trkpt lat="43.79143" lon="3.9847">
        <ele>203</ele>
        <time>2019-11-28T13:53:12.999Z</time>
      </trkpt>
      <trkpt lat="43.79126" lon="3.98459">
        <ele>205</ele>
        <time>2019-11-28T13:53:30.999Z</time>
      </trkpt>
      <trkpt lat="43.7911" lon="3.98447">
        <ele>207</ele>
        <time>2019-11-28T13:53:47.999Z</time>
      </trkpt>
      <trkpt lat="43.79096" lon="3.98432">
        <ele>208</ele>
        <time>2019-11-28T13:54:06.999Z</time>
      </trkpt>
      <trkpt lat="43.79086" lon="3.9841">
        <ele>209</ele>
        <time>2019-11-28T13:54:27.999Z</time>
      </trkpt>
      <trkpt lat="43.79078" lon="3.98388">
        <ele>218</ele>
        <time>2019-11-28T13:54:51.999Z</time>
      </trkpt>
      <trkpt lat="43.79065" lon="3.98368">
        <ele>219</ele>
        <time>2019-11-28T13:55:14.999Z</time>
      </trkpt>
      <trkpt lat="43.79058" lon="3.98344">
        <ele>219</ele>
        <time>2019-11-28T13:55:36.999Z</time>
      </trkpt>
      <trkpt lat="43.79051" lon="3.98321">
        <ele>219</ele>
        <time>2019-11-28T13:55:57.999Z</time>
      </trkpt>
      <trkpt lat="43.79047" lon="3.98295">
        <ele>220</ele>
        <time>2019-11-28T13:56:18.999Z</time>
      </trkpt>
      <trkpt lat="43.79046" lon="3.9827">
        <ele>221</ele>
        <time>2019-11-28T13:56:39.999Z</time>
      </trkpt>
      <trkpt lat="43.79035" lon="3.98251">
        <ele>221</ele>
        <time>2019-11-28T13:58:21.999Z</time>
      </trkpt>
      <trkpt lat="43.79016" lon="3.9825">
        <ele>224</ele>
        <time>2019-11-28T14:02:10.000Z</time>
      </trkpt>
      <trkpt lat="43.79034" lon="3.98246">
        <ele>224</ele>
        <time>2019-11-28T14:03:02.000Z</time>
      </trkpt>
      <trkpt lat="43.79051" lon="3.98236">
        <ele>224</ele>
        <time>2019-11-28T14:03:18.000Z</time>
      </trkpt>
      <trkpt lat="43.79067" lon="3.98224">
        <ele>224</ele>
        <time>2019-11-28T14:03:36.000Z</time>
      </trkpt>
      <trkpt lat="43.79083" lon="3.98211">
        <ele>225</ele>
        <time>2019-11-28T14:03:53.000Z</time>
      </trkpt>
      <trkpt lat="43.79098" lon="3.98198">
        <ele>229</ele>
        <time>2019-11-28T14:04:13.000Z</time>
      </trkpt>
      <trkpt lat="43.79114" lon="3.98183">
        <ele>230</ele>
        <time>2019-11-28T14:04:34.000Z</time>
      </trkpt>
      <trkpt lat="43.79129" lon="3.98167">
        <ele>232</ele>
        <time>2019-11-28T14:04:55.000Z</time>
      </trkpt>
      <trkpt lat="43.79141" lon="3.98147">
        <ele>239</ele>
        <time>2019-11-28T14:05:15.000Z</time>
      </trkpt>
      <trkpt lat="43.79142" lon="3.98122">
        <ele>241</ele>
        <time>2019-11-28T14:05:39.000Z</time>
      </trkpt>
      <trkpt lat="43.79135" lon="3.98099">
        <ele>242</ele>
        <time>2019-11-28T14:05:59.000Z</time>
      </trkpt>
      <trkpt lat="43.79139" lon="3.98074">
        <ele>247</ele>
        <time>2019-11-28T14:06:17.000Z</time>
      </trkpt>
      <trkpt lat="43.79138" lon="3.98048">
        <ele>248</ele>
        <time>2019-11-28T14:06:37.000Z</time>
      </trkpt>
      <trkpt lat="43.79138" lon="3.98023">
        <ele>249</ele>
        <time>2019-11-28T14:06:55.000Z</time>
      </trkpt>
      <trkpt lat="43.79135" lon="3.97998">
        <ele>253</ele>
        <time>2019-11-28T14:07:14.000Z</time>
      </trkpt>
      <trkpt lat="43.79121" lon="3.97982">
        <ele>253</ele>
        <time>2019-11-28T14:07:29.000Z</time>
      </trkpt>
      <trkpt lat="43.79108" lon="3.97964">
        <ele>253</ele>
        <time>2019-11-28T14:07:44.000Z</time>
      </trkpt>
      <trkpt lat="43.79094" lon="3.97947">
        <ele>254</ele>
        <time>2019-11-28T14:08:00.000Z</time>
      </trkpt>
      <trkpt lat="43.7908" lon="3.97929">
        <ele>250</ele>
        <time>2019-11-28T14:08:14.000Z</time>
      </trkpt>
      <trkpt lat="43.79068" lon="3.97909">
        <ele>251</ele>
        <time>2019-11-28T14:08:29.000Z</time>
      </trkpt>
      <trkpt lat="43.79055" lon="3.9789">
        <ele>249</ele>
        <time>2019-11-28T14:08:45.000Z</time>
      </trkpt>
      <trkpt lat="43.79041" lon="3.97873">
        <ele>248</ele>
        <time>2019-11-28T14:09:02.000Z</time>
      </trkpt>
      <trkpt lat="43.79028" lon="3.97854">
        <ele>247</ele>
        <time>2019-11-28T14:09:15.000Z</time>
      </trkpt>
      <trkpt lat="43.79017" lon="3.97834">
        <ele>246</ele>
        <time>2019-11-28T14:09:28.000Z</time>
      </trkpt>
      <trkpt lat="43.79013" lon="3.97809">
        <ele>247</ele>
        <time>2019-11-28T14:09:42.000Z</time>
      </trkpt>
      <trkpt lat="43.79005" lon="3.97786">
        <ele>247</ele>
        <time>2019-11-28T14:09:58.000Z</time>
      </trkpt>
      <trkpt lat="43.78995" lon="3.97765">
        <ele>238</ele>
        <time>2019-11-28T14:10:14.000Z</time>
      </trkpt>
      <trkpt lat="43.78986" lon="3.97743">
        <ele>237</ele>
        <time>2019-11-28T14:10:32.000Z</time>
      </trkpt>
      <trkpt lat="43.78973" lon="3.97725">
        <ele>233</ele>
        <time>2019-11-28T14:10:49.000Z</time>
      </trkpt>
      <trkpt lat="43.7896" lon="3.97705">
        <ele>231</ele>
        <time>2019-11-28T14:11:06.000Z</time>
      </trkpt>
      <trkpt lat="43.78948" lon="3.97685">
        <ele>230</ele>
        <time>2019-11-28T14:11:21.000Z</time>
      </trkpt>
      <trkpt lat="43.78934" lon="3.97669">
        <ele>228</ele>
        <time>2019-11-28T14:11:36.000Z</time>
      </trkpt>
      <trkpt lat="43.7894" lon="3.97645">
        <ele>226</ele>
        <time>2019-11-28T14:12:03.000Z</time>
      </trkpt>
      <trkpt lat="43.78957" lon="3.97637">
        <ele>226</ele>
        <time>2019-11-28T14:12:46.000Z</time>
      </trkpt>
      <trkpt lat="43.78969" lon="3.97617">
        <ele>225</ele>
        <time>2019-11-28T14:13:06.000Z</time>
      </trkpt>
      <trkpt lat="43.78982" lon="3.97597">
        <ele>223</ele>
        <time>2019-11-28T14:13:29.000Z</time>
      </trkpt>
      <trkpt lat="43.78989" lon="3.97573">
        <ele>217</ele>
        <time>2019-11-28T14:13:49.000Z</time>
      </trkpt>
      <trkpt lat="43.78997" lon="3.9755">
        <ele>213</ele>
        <time>2019-11-28T14:14:08.000Z</time>
      </trkpt>
      <trkpt lat="43.79005" lon="3.97528">
        <ele>211</ele>
        <time>2019-11-28T14:14:31.000Z</time>
      </trkpt>
      <trkpt lat="43.78995" lon="3.97506">
        <ele>206</ele>
        <time>2019-11-28T14:15:06.000Z</time>
      </trkpt>
      <trkpt lat="43.78987" lon="3.97484">
        <ele>200</ele>
        <time>2019-11-28T14:15:35.000Z</time>
      </trkpt>
      <trkpt lat="43.78978" lon="3.97462">
        <ele>197</ele>
        <time>2019-11-28T14:16:06.000Z</time>
      </trkpt>
      <trkpt lat="43.78967" lon="3.97441">
        <ele>195</ele>
        <time>2019-11-28T14:16:27.000Z</time>
      </trkpt>
      <trkpt lat="43.78957" lon="3.9742">
        <ele>194</ele>
        <time>2019-11-28T14:16:46.000Z</time>
      </trkpt>
      <trkpt lat="43.78947" lon="3.97399">
        <ele>184</ele>
        <time>2019-11-28T14:17:04.000Z</time>
      </trkpt>
      <trkpt lat="43.78937" lon="3.97378">
        <ele>181</ele>
        <time>2019-11-28T14:17:23.000Z</time>
      </trkpt>
      <trkpt lat="43.78926" lon="3.97357">
        <ele>178</ele>
        <time>2019-11-28T14:17:44.000Z</time>
      </trkpt>
      <trkpt lat="43.78923" lon="3.97332">
        <ele>171</ele>
        <time>2019-11-28T14:17:59.000Z</time>
      </trkpt>
      <trkpt lat="43.78908" lon="3.97318">
        <ele>166</ele>
        <time>2019-11-28T14:18:27.000Z</time>
      </trkpt>
      <trkpt lat="43.78898" lon="3.97296">
        <ele>163</ele>
        <time>2019-11-28T14:18:52.000Z</time>
      </trkpt>
      <trkpt lat="43.78884" lon="3.9728">
        <ele>161</ele>
        <time>2019-11-28T14:19:13.000Z</time>
      </trkpt>
      <trkpt lat="43.78867" lon="3.97268">
        <ele>159</ele>
        <time>2019-11-28T14:19:32.000Z</time>
      </trkpt>
      <trkpt lat="43.78854" lon="3.9725">
        <ele>150</ele>
        <time>2019-11-28T14:19:52.000Z</time>
      </trkpt>
      <trkpt lat="43.78838" lon="3.97238">
        <ele>150</ele>
        <time>2019-11-28T14:20:09.000Z</time>
      </trkpt>
      <trkpt lat="43.78822" lon="3.97225">
        <ele>144</ele>
        <time>2019-11-28T14:20:24.000Z</time>
      </trkpt>
      <trkpt lat="43.78808" lon="3.9721">
        <ele>141</ele>
        <time>2019-11-28T14:20:43.000Z</time>
      </trkpt>
      <trkpt lat="43.788" lon="3.97186">
        <ele>139</ele>
        <time>2019-11-28T14:20:59.000Z</time>
      </trkpt>
      <trkpt lat="43.788" lon="3.97161">
        <ele>133</ele>
        <time>2019-11-28T14:21:19.000Z</time>
      </trkpt>
      <trkpt lat="43.78803" lon="3.97136">
        <ele>132</ele>
        <time>2019-11-28T14:21:44.000Z</time>
      </trkpt>
      <trkpt lat="43.78802" lon="3.9711">
        <ele>130</ele>
        <time>2019-11-28T14:22:02.000Z</time>
      </trkpt>
      <trkpt lat="43.78787" lon="3.97094">
        <ele>128</ele>
        <time>2019-11-28T14:22:18.000Z</time>
      </trkpt>
      <trkpt lat="43.78774" lon="3.97076">
        <ele>121</ele>
        <time>2019-11-28T14:22:35.000Z</time>
      </trkpt>
      <trkpt lat="43.78761" lon="3.97059">
        <ele>120</ele>
        <time>2019-11-28T14:22:55.000Z</time>
      </trkpt>
      <trkpt lat="43.78748" lon="3.97041">
        <ele>110</ele>
        <time>2019-11-28T14:23:11.000Z</time>
      </trkpt>
      <trkpt lat="43.78739" lon="3.97019">
        <ele>109</ele>
        <time>2019-11-28T14:23:30.000Z</time>
      </trkpt>
      <trkpt lat="43.78729" lon="3.96997">
        <ele>104</ele>
        <time>2019-11-28T14:23:49.000Z</time>
      </trkpt>
      <trkpt lat="43.78727" lon="3.96971">
        <ele>102</ele>
        <time>2019-11-28T14:24:05.000Z</time>
      </trkpt>
      <trkpt lat="43.78728" lon="3.96945">
        <ele>100</ele>
        <time>2019-11-28T14:24:24.000Z</time>
      </trkpt>
      <trkpt lat="43.78724" lon="3.96919">
        <ele>99</ele>
        <time>2019-11-28T14:24:40.000Z</time>
      </trkpt>
      <trkpt lat="43.78724" lon="3.96894">
        <ele>94</ele>
        <time>2019-11-28T14:25:08.000Z</time>
      </trkpt>
      <trkpt lat="43.78718" lon="3.96869">
        <ele>93</ele>
        <time>2019-11-28T14:30:12.000Z</time>
      </trkpt>
      <trkpt lat="43.78703" lon="3.96854">
        <ele>92</ele>
        <time>2019-11-28T14:30:28.000Z</time>
      </trkpt>
      <trkpt lat="43.78698" lon="3.9683">
        <ele>87</ele>
        <time>2019-11-28T14:30:46.000Z</time>
      </trkpt>
      <trkpt lat="43.78698" lon="3.96804">
        <ele>87</ele>
        <time>2019-11-28T14:31:03.000Z</time>
      </trkpt>
      <trkpt lat="43.78689" lon="3.96782">
        <ele>85</ele>
        <time>2019-11-28T14:31:21.000Z</time>
      </trkpt>
      <trkpt lat="43.78678" lon="3.96762">
        <ele>83</ele>
        <time>2019-11-28T14:31:36.000Z</time>
      </trkpt>
      <trkpt lat="43.78663" lon="3.96746">
        <ele>78</ele>
        <time>2019-11-28T14:31:54.000Z</time>
      </trkpt>
      <trkpt lat="43.78649" lon="3.96731">
        <ele>77</ele>
        <time>2019-11-28T14:32:13.000Z</time>
      </trkpt>
      <trkpt lat="43.78653" lon="3.96706">
        <ele>76</ele>
        <time>2019-11-28T14:32:26.000Z</time>
      </trkpt>
      <trkpt lat="43.7866" lon="3.96683">
        <ele>76</ele>
        <time>2019-11-28T14:32:42.000Z</time>
      </trkpt>
      <trkpt lat="43.78672" lon="3.96662">
        <ele>77</ele>
        <time>2019-11-28T14:32:59.000Z</time>
      </trkpt>
      <trkpt lat="43.78684" lon="3.96644">
        <ele>78</ele>
        <time>2019-11-28T14:33:14.000Z</time>
      </trkpt>
      <trkpt lat="43.78697" lon="3.96627">
        <ele>78</ele>
        <time>2019-11-28T14:33:30.000Z</time>
      </trkpt>
      <trkpt lat="43.78711" lon="3.96609">
        <ele>78</ele>
        <time>2019-11-28T14:33:46.000Z</time>
      </trkpt>
      <trkpt lat="43.78724" lon="3.96591">
        <ele>79</ele>
        <time>2019-11-28T14:34:02.000Z</time>
      </trkpt>
      <trkpt lat="43.78735" lon="3.96572">
        <ele>78</ele>
        <time>2019-11-28T14:34:17.000Z</time>
      </trkpt>
      <trkpt lat="43.78747" lon="3.96552">
        <ele>78</ele>
        <time>2019-11-28T14:34:31.000Z</time>
      </trkpt>
      <trkpt lat="43.78761" lon="3.96534">
        <ele>81</ele>
        <time>2019-11-28T14:34:48.000Z</time>
      </trkpt>
      <trkpt lat="43.78773" lon="3.96514">
        <ele>81</ele>
        <time>2019-11-28T14:35:04.000Z</time>
      </trkpt>
      <trkpt lat="43.78786" lon="3.96497">
        <ele>79</ele>
        <time>2019-11-28T14:35:20.000Z</time>
      </trkpt>
      <trkpt lat="43.788" lon="3.96481">
        <ele>80</ele>
        <time>2019-11-28T14:35:34.000Z</time>
      </trkpt>
      <trkpt lat="43.78815" lon="3.96464">
        <ele>80</ele>
        <time>2019-11-28T14:35:48.000Z</time>
      </trkpt>
      <trkpt lat="43.78829" lon="3.96446">
        <ele>79</ele>
        <time>2019-11-28T14:36:02.000Z</time>
      </trkpt>
      <trkpt lat="43.78844" lon="3.9643">
        <ele>80</ele>
        <time>2019-11-28T14:36:17.000Z</time>
      </trkpt>
      <trkpt lat="43.78858" lon="3.96414">
        <ele>79</ele>
        <time>2019-11-28T14:36:31.000Z</time>
      </trkpt>
      <trkpt lat="43.78873" lon="3.96399">
        <ele>79</ele>
        <time>2019-11-28T14:36:45.000Z</time>
      </trkpt>
      <trkpt lat="43.78885" lon="3.9638">
        <ele>80</ele>
        <time>2019-11-28T14:36:59.000Z</time>
      </trkpt>
      <trkpt lat="43.78895" lon="3.96357">
        <ele>79</ele>
        <time>2019-11-28T14:37:15.000Z</time>
      </trkpt>
      <trkpt lat="43.78898" lon="3.96333">
        <ele>79</ele>
        <time>2019-11-28T14:37:29.000Z</time>
      </trkpt>
      <trkpt lat="43.78898" lon="3.96307">
        <ele>79</ele>
        <time>2019-11-28T14:37:44.000Z</time>
      </trkpt>
      <trkpt lat="43.789" lon="3.96283">
        <ele>79</ele>
        <time>2019-11-28T14:37:59.000Z</time>
      </trkpt>
      <trkpt lat="43.789" lon="3.96258">
        <ele>79</ele>
        <time>2019-11-28T14:38:14.000Z</time>
      </trkpt>
      <trkpt lat="43.78904" lon="3.96232">
        <ele>79</ele>
        <time>2019-11-28T14:38:33.000Z</time>
      </trkpt>
      <trkpt lat="43.78917" lon="3.96212">
        <ele>79</ele>
        <time>2019-11-28T14:38:51.000Z</time>
      </trkpt>
      <trkpt lat="43.78935" lon="3.96206">
        <ele>80</ele>
        <time>2019-11-28T14:39:08.000Z</time>
      </trkpt>
      <trkpt lat="43.78952" lon="3.96195">
        <ele>80</ele>
        <time>2019-11-28T14:39:24.000Z</time>
      </trkpt>
      <trkpt lat="43.7897" lon="3.96186">
        <ele>80</ele>
        <time>2019-11-28T14:39:41.000Z</time>
      </trkpt>
      <trkpt lat="43.78989" lon="3.9618">
        <ele>81</ele>
        <time>2019-11-28T14:39:58.000Z</time>
      </trkpt>
      <trkpt lat="43.79006" lon="3.9617">
        <ele>81</ele>
        <time>2019-11-28T14:40:13.000Z</time>
      </trkpt>
      <trkpt lat="43.79025" lon="3.96162">
        <ele>81</ele>
        <time>2019-11-28T14:40:31.000Z</time>
      </trkpt>
      <trkpt lat="43.79043" lon="3.96158">
        <ele>81</ele>
        <time>2019-11-28T14:40:46.000Z</time>
      </trkpt>
      <trkpt lat="43.79061" lon="3.96147">
        <ele>81</ele>
        <time>2019-11-28T14:41:01.000Z</time>
      </trkpt>
      <trkpt lat="43.79078" lon="3.96139">
        <ele>82</ele>
        <time>2019-11-28T14:41:19.000Z</time>
      </trkpt>
      <trkpt lat="43.79094" lon="3.96126">
        <ele>82</ele>
        <time>2019-11-28T14:41:34.000Z</time>
      </trkpt>
      <trkpt lat="43.79111" lon="3.96116">
        <ele>82</ele>
        <time>2019-11-28T14:41:50.000Z</time>
      </trkpt>
    </trkseg>
  </trk>
</gpx>